<?xml version="1.0" encoding="UTF-8" standalone="no" ?>
<gpx xmlns="http://www.topografix.com/GPX/1/1" xmlns:xsi="http://www.w3.org/2001/XMLSchema-instance" xsi:schemaLocation="http://www.topografix.com/GPX/1/1 http://www.topografix.com/GPX/1/1/gpx.xsd" version="1.1" creator="VisuGPX - https://www.visugpx.com">
  <metadata>
    <name>La seya Grand Garde</name>
    <desc><![CDATA[Belle rando à Ovronnaz en solitaire.]]></desc>
  </metadata>
  <trk>
    <name><![CDATA[10-JUIN-16 18:01:23]]></name>
    <trkseg>
      <trkpt lat="46.19974" lon="7.15719">
        <ele>1628.61</ele>
        <time>2016-06-10T13:01:03Z</time>
      </trkpt>
      <trkpt lat="46.19983" lon="7.15727">
        <ele>1605.54</ele>
        <time>2016-06-10T13:01:22Z</time>
      </trkpt>
      <trkpt lat="46.19986" lon="7.15737">
        <ele>1603.14</ele>
        <time>2016-06-10T13:01:40Z</time>
      </trkpt>
      <trkpt lat="46.19983" lon="7.15733">
        <ele>1611.31</ele>
        <time>2016-06-10T13:02:02Z</time>
      </trkpt>
      <trkpt lat="46.19982" lon="7.1574">
        <ele>1610.35</ele>
        <time>2016-06-10T13:02:28Z</time>
      </trkpt>
      <trkpt lat="46.19977" lon="7.15747">
        <ele>1606.98</ele>
        <time>2016-06-10T13:02:44Z</time>
      </trkpt>
      <trkpt lat="46.19979" lon="7.15746">
        <ele>1606.5</ele>
        <time>2016-06-10T13:02:46Z</time>
      </trkpt>
      <trkpt lat="46.19982" lon="7.15743">
        <ele>1605.54</ele>
        <time>2016-06-10T13:02:50Z</time>
      </trkpt>
      <trkpt lat="46.19982" lon="7.15722">
        <ele>1612.75</ele>
        <time>2016-06-10T13:03:03Z</time>
      </trkpt>
      <trkpt lat="46.19983" lon="7.15716">
        <ele>1614.67</ele>
        <time>2016-06-10T13:03:07Z</time>
      </trkpt>
      <trkpt lat="46.19986" lon="7.15705">
        <ele>1614.67</ele>
        <time>2016-06-10T13:03:13Z</time>
      </trkpt>
      <trkpt lat="46.19986" lon="7.157">
        <ele>1614.67</ele>
        <time>2016-06-10T13:03:16Z</time>
      </trkpt>
      <trkpt lat="46.19986" lon="7.15692">
        <ele>1615.15</ele>
        <time>2016-06-10T13:03:20Z</time>
      </trkpt>
      <trkpt lat="46.19982" lon="7.1567">
        <ele>1616.11</ele>
        <time>2016-06-10T13:03:32Z</time>
      </trkpt>
      <trkpt lat="46.19977" lon="7.15659">
        <ele>1617.07</ele>
        <time>2016-06-10T13:03:41Z</time>
      </trkpt>
      <trkpt lat="46.19971" lon="7.15647">
        <ele>1620.44</ele>
        <time>2016-06-10T13:03:53Z</time>
      </trkpt>
      <trkpt lat="46.19966" lon="7.15633">
        <ele>1625.25</ele>
        <time>2016-06-10T13:04:03Z</time>
      </trkpt>
      <trkpt lat="46.19965" lon="7.15631">
        <ele>1626.21</ele>
        <time>2016-06-10T13:04:05Z</time>
      </trkpt>
      <trkpt lat="46.19956" lon="7.15609">
        <ele>1633.9</ele>
        <time>2016-06-10T13:04:19Z</time>
      </trkpt>
      <trkpt lat="46.19951" lon="7.15599">
        <ele>1638.22</ele>
        <time>2016-06-10T13:04:29Z</time>
      </trkpt>
      <trkpt lat="46.19949" lon="7.15597">
        <ele>1637.74</ele>
        <time>2016-06-10T13:04:32Z</time>
      </trkpt>
      <trkpt lat="46.1994" lon="7.15584">
        <ele>1635.82</ele>
        <time>2016-06-10T13:04:45Z</time>
      </trkpt>
      <trkpt lat="46.19939" lon="7.15582">
        <ele>1635.82</ele>
        <time>2016-06-10T13:04:47Z</time>
      </trkpt>
      <trkpt lat="46.19939" lon="7.15579">
        <ele>1635.82</ele>
        <time>2016-06-10T13:04:49Z</time>
      </trkpt>
      <trkpt lat="46.19929" lon="7.15567">
        <ele>1635.82</ele>
        <time>2016-06-10T13:05:02Z</time>
      </trkpt>
      <trkpt lat="46.19916" lon="7.15554">
        <ele>1635.82</ele>
        <time>2016-06-10T13:05:17Z</time>
      </trkpt>
      <trkpt lat="46.19905" lon="7.15547">
        <ele>1635.82</ele>
        <time>2016-06-10T13:05:30Z</time>
      </trkpt>
      <trkpt lat="46.19892" lon="7.1554">
        <ele>1636.3</ele>
        <time>2016-06-10T13:05:43Z</time>
      </trkpt>
      <trkpt lat="46.19881" lon="7.15532">
        <ele>1636.3</ele>
        <time>2016-06-10T13:05:57Z</time>
      </trkpt>
      <trkpt lat="46.19867" lon="7.15529">
        <ele>1636.3</ele>
        <time>2016-06-10T13:06:10Z</time>
      </trkpt>
      <trkpt lat="46.19858" lon="7.15527">
        <ele>1636.3</ele>
        <time>2016-06-10T13:06:20Z</time>
      </trkpt>
      <trkpt lat="46.19845" lon="7.15524">
        <ele>1636.3</ele>
        <time>2016-06-10T13:06:32Z</time>
      </trkpt>
      <trkpt lat="46.19844" lon="7.15524">
        <ele>1636.3</ele>
        <time>2016-06-10T13:06:33Z</time>
      </trkpt>
      <trkpt lat="46.19837" lon="7.15525">
        <ele>1647.36</ele>
        <time>2016-06-10T13:06:48Z</time>
      </trkpt>
      <trkpt lat="46.19825" lon="7.15521">
        <ele>1646.88</ele>
        <time>2016-06-10T13:06:59Z</time>
      </trkpt>
      <trkpt lat="46.19814" lon="7.15513">
        <ele>1645.43</ele>
        <time>2016-06-10T13:07:14Z</time>
      </trkpt>
      <trkpt lat="46.19803" lon="7.1551">
        <ele>1645.43</ele>
        <time>2016-06-10T13:07:26Z</time>
      </trkpt>
      <trkpt lat="46.19799" lon="7.15508">
        <ele>1645.43</ele>
        <time>2016-06-10T13:07:32Z</time>
      </trkpt>
      <trkpt lat="46.19794" lon="7.15503">
        <ele>1645.43</ele>
        <time>2016-06-10T13:07:38Z</time>
      </trkpt>
      <trkpt lat="46.19783" lon="7.15497">
        <ele>1644.95</ele>
        <time>2016-06-10T13:07:50Z</time>
      </trkpt>
      <trkpt lat="46.19763" lon="7.15495">
        <ele>1640.15</ele>
        <time>2016-06-10T13:08:05Z</time>
      </trkpt>
      <trkpt lat="46.19752" lon="7.15495">
        <ele>1642.55</ele>
        <time>2016-06-10T13:08:19Z</time>
      </trkpt>
      <trkpt lat="46.19743" lon="7.1549">
        <ele>1646.4</ele>
        <time>2016-06-10T13:08:31Z</time>
      </trkpt>
      <trkpt lat="46.19737" lon="7.15486">
        <ele>1648.32</ele>
        <time>2016-06-10T13:08:38Z</time>
      </trkpt>
      <trkpt lat="46.19735" lon="7.15481">
        <ele>1653.6</ele>
        <time>2016-06-10T13:08:49Z</time>
      </trkpt>
      <trkpt lat="46.1973" lon="7.15477">
        <ele>1659.85</ele>
        <time>2016-06-10T13:09:03Z</time>
      </trkpt>
      <trkpt lat="46.19725" lon="7.15474">
        <ele>1662.26</ele>
        <time>2016-06-10T13:09:16Z</time>
      </trkpt>
      <trkpt lat="46.19715" lon="7.15469">
        <ele>1667.06</ele>
        <time>2016-06-10T13:09:31Z</time>
      </trkpt>
      <trkpt lat="46.19714" lon="7.1547">
        <ele>1669.47</ele>
        <time>2016-06-10T13:09:40Z</time>
      </trkpt>
      <trkpt lat="46.19719" lon="7.15462">
        <ele>1671.87</ele>
        <time>2016-06-10T13:09:52Z</time>
      </trkpt>
      <trkpt lat="46.19727" lon="7.15451">
        <ele>1671.87</ele>
        <time>2016-06-10T13:10:03Z</time>
      </trkpt>
      <trkpt lat="46.19727" lon="7.15437">
        <ele>1673.31</ele>
        <time>2016-06-10T13:10:16Z</time>
      </trkpt>
      <trkpt lat="46.19718" lon="7.15437">
        <ele>1676.2</ele>
        <time>2016-06-10T13:10:26Z</time>
      </trkpt>
      <trkpt lat="46.19712" lon="7.15438">
        <ele>1677.64</ele>
        <time>2016-06-10T13:10:35Z</time>
      </trkpt>
      <trkpt lat="46.19708" lon="7.15439">
        <ele>1679.08</ele>
        <time>2016-06-10T13:10:38Z</time>
      </trkpt>
      <trkpt lat="46.19698" lon="7.1544">
        <ele>1682.44</ele>
        <time>2016-06-10T13:10:45Z</time>
      </trkpt>
      <trkpt lat="46.19691" lon="7.1544">
        <ele>1682.93</ele>
        <time>2016-06-10T13:10:50Z</time>
      </trkpt>
      <trkpt lat="46.19686" lon="7.15442">
        <ele>1682.93</ele>
        <time>2016-06-10T13:10:54Z</time>
      </trkpt>
      <trkpt lat="46.19672" lon="7.15445">
        <ele>1685.33</ele>
        <time>2016-06-10T13:11:08Z</time>
      </trkpt>
      <trkpt lat="46.19665" lon="7.15445">
        <ele>1685.33</ele>
        <time>2016-06-10T13:11:13Z</time>
      </trkpt>
      <trkpt lat="46.19666" lon="7.15451">
        <ele>1684.85</ele>
        <time>2016-06-10T13:11:26Z</time>
      </trkpt>
      <trkpt lat="46.19657" lon="7.15449">
        <ele>1685.81</ele>
        <time>2016-06-10T13:11:38Z</time>
      </trkpt>
      <trkpt lat="46.19644" lon="7.15448">
        <ele>1686.29</ele>
        <time>2016-06-10T13:11:52Z</time>
      </trkpt>
      <trkpt lat="46.19632" lon="7.15449">
        <ele>1686.29</ele>
        <time>2016-06-10T13:12:03Z</time>
      </trkpt>
      <trkpt lat="46.1962" lon="7.15448">
        <ele>1686.29</ele>
        <time>2016-06-10T13:12:16Z</time>
      </trkpt>
      <trkpt lat="46.19609" lon="7.1545">
        <ele>1683.41</ele>
        <time>2016-06-10T13:12:30Z</time>
      </trkpt>
      <trkpt lat="46.19598" lon="7.15447">
        <ele>1682.93</ele>
        <time>2016-06-10T13:12:43Z</time>
      </trkpt>
      <trkpt lat="46.19592" lon="7.15446">
        <ele>1684.85</ele>
        <time>2016-06-10T13:12:55Z</time>
      </trkpt>
      <trkpt lat="46.19579" lon="7.15446">
        <ele>1686.77</ele>
        <time>2016-06-10T13:13:08Z</time>
      </trkpt>
      <trkpt lat="46.19567" lon="7.15447">
        <ele>1689.65</ele>
        <time>2016-06-10T13:13:22Z</time>
      </trkpt>
      <trkpt lat="46.19564" lon="7.15447">
        <ele>1693.02</ele>
        <time>2016-06-10T13:13:35Z</time>
      </trkpt>
      <trkpt lat="46.19547" lon="7.15445">
        <ele>1694.46</ele>
        <time>2016-06-10T13:13:48Z</time>
      </trkpt>
      <trkpt lat="46.19528" lon="7.1545">
        <ele>1694.46</ele>
        <time>2016-06-10T13:14:02Z</time>
      </trkpt>
      <trkpt lat="46.19515" lon="7.15453">
        <ele>1697.83</ele>
        <time>2016-06-10T13:14:18Z</time>
      </trkpt>
      <trkpt lat="46.19509" lon="7.15455">
        <ele>1704.55</ele>
        <time>2016-06-10T13:14:31Z</time>
      </trkpt>
      <trkpt lat="46.19501" lon="7.15452">
        <ele>1708.4</ele>
        <time>2016-06-10T13:14:45Z</time>
      </trkpt>
      <trkpt lat="46.19493" lon="7.1545">
        <ele>1710.32</ele>
        <time>2016-06-10T13:14:58Z</time>
      </trkpt>
      <trkpt lat="46.19487" lon="7.15448">
        <ele>1710.8</ele>
        <time>2016-06-10T13:15:12Z</time>
      </trkpt>
      <trkpt lat="46.19486" lon="7.15449">
        <ele>1709.84</ele>
        <time>2016-06-10T13:15:29Z</time>
      </trkpt>
      <trkpt lat="46.19476" lon="7.15449">
        <ele>1709.84</ele>
        <time>2016-06-10T13:15:41Z</time>
      </trkpt>
      <trkpt lat="46.19467" lon="7.15445">
        <ele>1711.28</ele>
        <time>2016-06-10T13:15:54Z</time>
      </trkpt>
      <trkpt lat="46.19456" lon="7.15445">
        <ele>1712.73</ele>
        <time>2016-06-10T13:16:07Z</time>
      </trkpt>
      <trkpt lat="46.19448" lon="7.15443">
        <ele>1714.17</ele>
        <time>2016-06-10T13:16:22Z</time>
      </trkpt>
      <trkpt lat="46.19428" lon="7.15442">
        <ele>1714.65</ele>
        <time>2016-06-10T13:16:36Z</time>
      </trkpt>
      <trkpt lat="46.19422" lon="7.1544">
        <ele>1719.94</ele>
        <time>2016-06-10T13:16:50Z</time>
      </trkpt>
      <trkpt lat="46.19415" lon="7.1544">
        <ele>1724.74</ele>
        <time>2016-06-10T13:17:06Z</time>
      </trkpt>
      <trkpt lat="46.19399" lon="7.15442">
        <ele>1727.63</ele>
        <time>2016-06-10T13:17:23Z</time>
      </trkpt>
      <trkpt lat="46.19396" lon="7.15444">
        <ele>1732.43</ele>
        <time>2016-06-10T13:17:38Z</time>
      </trkpt>
      <trkpt lat="46.1939" lon="7.15441">
        <ele>1736.28</ele>
        <time>2016-06-10T13:17:54Z</time>
      </trkpt>
      <trkpt lat="46.1938" lon="7.15442">
        <ele>1741.57</ele>
        <time>2016-06-10T13:18:07Z</time>
      </trkpt>
      <trkpt lat="46.19375" lon="7.15443">
        <ele>1746.85</ele>
        <time>2016-06-10T13:18:22Z</time>
      </trkpt>
      <trkpt lat="46.19373" lon="7.15443">
        <ele>1747.81</ele>
        <time>2016-06-10T13:18:23Z</time>
      </trkpt>
      <trkpt lat="46.19363" lon="7.15443">
        <ele>1748.29</ele>
        <time>2016-06-10T13:18:35Z</time>
      </trkpt>
      <trkpt lat="46.19359" lon="7.15436">
        <ele>1749.74</ele>
        <time>2016-06-10T13:18:49Z</time>
      </trkpt>
      <trkpt lat="46.19348" lon="7.15433">
        <ele>1750.22</ele>
        <time>2016-06-10T13:19:04Z</time>
      </trkpt>
      <trkpt lat="46.19343" lon="7.15428">
        <ele>1754.06</ele>
        <time>2016-06-10T13:19:17Z</time>
      </trkpt>
      <trkpt lat="46.19334" lon="7.15425">
        <ele>1757.91</ele>
        <time>2016-06-10T13:19:30Z</time>
      </trkpt>
      <trkpt lat="46.19332" lon="7.15416">
        <ele>1765.12</ele>
        <time>2016-06-10T13:19:44Z</time>
      </trkpt>
      <trkpt lat="46.1933" lon="7.15411">
        <ele>1771.37</ele>
        <time>2016-06-10T13:19:57Z</time>
      </trkpt>
      <trkpt lat="46.19328" lon="7.15411">
        <ele>1774.25</ele>
        <time>2016-06-10T13:20:11Z</time>
      </trkpt>
      <trkpt lat="46.19322" lon="7.15404">
        <ele>1782.9</ele>
        <time>2016-06-10T13:20:24Z</time>
      </trkpt>
      <trkpt lat="46.19316" lon="7.15398">
        <ele>1790.59</ele>
        <time>2016-06-10T13:20:36Z</time>
      </trkpt>
      <trkpt lat="46.19312" lon="7.15386">
        <ele>1801.17</ele>
        <time>2016-06-10T13:20:52Z</time>
      </trkpt>
      <trkpt lat="46.19305" lon="7.1538">
        <ele>1805.97</ele>
        <time>2016-06-10T13:21:05Z</time>
      </trkpt>
      <trkpt lat="46.1929" lon="7.15376">
        <ele>1808.86</ele>
        <time>2016-06-10T13:21:20Z</time>
      </trkpt>
      <trkpt lat="46.19268" lon="7.15372">
        <ele>1795.4</ele>
        <time>2016-06-10T13:21:33Z</time>
      </trkpt>
      <trkpt lat="46.19252" lon="7.15363">
        <ele>1787.71</ele>
        <time>2016-06-10T13:21:47Z</time>
      </trkpt>
      <trkpt lat="46.19241" lon="7.15359">
        <ele>1785.79</ele>
        <time>2016-06-10T13:22:03Z</time>
      </trkpt>
      <trkpt lat="46.19233" lon="7.15358">
        <ele>1787.71</ele>
        <time>2016-06-10T13:22:16Z</time>
      </trkpt>
      <trkpt lat="46.19222" lon="7.15355">
        <ele>1792.52</ele>
        <time>2016-06-10T13:22:32Z</time>
      </trkpt>
      <trkpt lat="46.19206" lon="7.15352">
        <ele>1787.23</ele>
        <time>2016-06-10T13:22:47Z</time>
      </trkpt>
      <trkpt lat="46.19197" lon="7.15345">
        <ele>1788.19</ele>
        <time>2016-06-10T13:23:00Z</time>
      </trkpt>
      <trkpt lat="46.19188" lon="7.1534">
        <ele>1785.79</ele>
        <time>2016-06-10T13:23:20Z</time>
      </trkpt>
      <trkpt lat="46.19184" lon="7.15336">
        <ele>1783.38</ele>
        <time>2016-06-10T13:23:43Z</time>
      </trkpt>
      <trkpt lat="46.19183" lon="7.1533">
        <ele>1783.38</ele>
        <time>2016-06-10T13:23:51Z</time>
      </trkpt>
      <trkpt lat="46.19172" lon="7.15317">
        <ele>1780.98</ele>
        <time>2016-06-10T13:24:04Z</time>
      </trkpt>
      <trkpt lat="46.19165" lon="7.15307">
        <ele>1778.1</ele>
        <time>2016-06-10T13:24:13Z</time>
      </trkpt>
      <trkpt lat="46.19156" lon="7.15301">
        <ele>1779.54</ele>
        <time>2016-06-10T13:24:24Z</time>
      </trkpt>
      <trkpt lat="46.19154" lon="7.15301">
        <ele>1780.98</ele>
        <time>2016-06-10T13:24:36Z</time>
      </trkpt>
      <trkpt lat="46.19153" lon="7.15301">
        <ele>1781.94</ele>
        <time>2016-06-10T13:24:47Z</time>
      </trkpt>
      <trkpt lat="46.19151" lon="7.15303">
        <ele>1784.34</ele>
        <time>2016-06-10T13:25:02Z</time>
      </trkpt>
      <trkpt lat="46.19146" lon="7.15308">
        <ele>1789.15</ele>
        <time>2016-06-10T13:25:14Z</time>
      </trkpt>
      <trkpt lat="46.19135" lon="7.15321">
        <ele>1795.88</ele>
        <time>2016-06-10T13:25:23Z</time>
      </trkpt>
      <trkpt lat="46.19124" lon="7.15331">
        <ele>1799.24</ele>
        <time>2016-06-10T13:25:36Z</time>
      </trkpt>
      <trkpt lat="46.19109" lon="7.15331">
        <ele>1799.73</ele>
        <time>2016-06-10T13:25:49Z</time>
      </trkpt>
      <trkpt lat="46.191" lon="7.15333">
        <ele>1798.76</ele>
        <time>2016-06-10T13:25:53Z</time>
      </trkpt>
      <trkpt lat="46.19084" lon="7.15332">
        <ele>1796.84</ele>
        <time>2016-06-10T13:26:05Z</time>
      </trkpt>
      <trkpt lat="46.19083" lon="7.1533">
        <ele>1796.84</ele>
        <time>2016-06-10T13:26:06Z</time>
      </trkpt>
      <trkpt lat="46.19076" lon="7.1533">
        <ele>1795.4</ele>
        <time>2016-06-10T13:26:14Z</time>
      </trkpt>
      <trkpt lat="46.19066" lon="7.15329">
        <ele>1796.84</ele>
        <time>2016-06-10T13:26:22Z</time>
      </trkpt>
      <trkpt lat="46.1906" lon="7.15327">
        <ele>1795.4</ele>
        <time>2016-06-10T13:26:26Z</time>
      </trkpt>
      <trkpt lat="46.19047" lon="7.1532">
        <ele>1793.48</ele>
        <time>2016-06-10T13:26:39Z</time>
      </trkpt>
      <trkpt lat="46.19027" lon="7.15313">
        <ele>1792.03</ele>
        <time>2016-06-10T13:26:54Z</time>
      </trkpt>
      <trkpt lat="46.19007" lon="7.1531">
        <ele>1793.48</ele>
        <time>2016-06-10T13:27:09Z</time>
      </trkpt>
      <trkpt lat="46.19" lon="7.1531">
        <ele>1792.52</ele>
        <time>2016-06-10T13:27:23Z</time>
      </trkpt>
      <trkpt lat="46.18995" lon="7.15305">
        <ele>1794.92</ele>
        <time>2016-06-10T13:27:38Z</time>
      </trkpt>
      <trkpt lat="46.18983" lon="7.15303">
        <ele>1796.36</ele>
        <time>2016-06-10T13:27:54Z</time>
      </trkpt>
      <trkpt lat="46.18971" lon="7.15295">
        <ele>1796.84</ele>
        <time>2016-06-10T13:28:08Z</time>
      </trkpt>
      <trkpt lat="46.1896" lon="7.1529">
        <ele>1798.28</ele>
        <time>2016-06-10T13:28:23Z</time>
      </trkpt>
      <trkpt lat="46.18947" lon="7.15292">
        <ele>1799.24</ele>
        <time>2016-06-10T13:28:37Z</time>
      </trkpt>
      <trkpt lat="46.18936" lon="7.15294">
        <ele>1798.28</ele>
        <time>2016-06-10T13:28:48Z</time>
      </trkpt>
      <trkpt lat="46.18924" lon="7.15302">
        <ele>1799.24</ele>
        <time>2016-06-10T13:29:01Z</time>
      </trkpt>
      <trkpt lat="46.18909" lon="7.15298">
        <ele>1800.21</ele>
        <time>2016-06-10T13:29:16Z</time>
      </trkpt>
      <trkpt lat="46.18897" lon="7.15294">
        <ele>1799.24</ele>
        <time>2016-06-10T13:29:28Z</time>
      </trkpt>
      <trkpt lat="46.18883" lon="7.15289">
        <ele>1796.36</ele>
        <time>2016-06-10T13:29:42Z</time>
      </trkpt>
      <trkpt lat="46.18878" lon="7.15287">
        <ele>1797.8</ele>
        <time>2016-06-10T13:29:53Z</time>
      </trkpt>
      <trkpt lat="46.18873" lon="7.15283">
        <ele>1799.73</ele>
        <time>2016-06-10T13:30:07Z</time>
      </trkpt>
      <trkpt lat="46.18857" lon="7.15284">
        <ele>1802.61</ele>
        <time>2016-06-10T13:30:24Z</time>
      </trkpt>
      <trkpt lat="46.18845" lon="7.15281">
        <ele>1804.05</ele>
        <time>2016-06-10T13:30:39Z</time>
      </trkpt>
      <trkpt lat="46.18836" lon="7.1528">
        <ele>1805.97</ele>
        <time>2016-06-10T13:30:54Z</time>
      </trkpt>
      <trkpt lat="46.18833" lon="7.15281">
        <ele>1807.9</ele>
        <time>2016-06-10T13:31:07Z</time>
      </trkpt>
      <trkpt lat="46.18832" lon="7.15283">
        <ele>1812.7</ele>
        <time>2016-06-10T13:31:18Z</time>
      </trkpt>
      <trkpt lat="46.18825" lon="7.15293">
        <ele>1820.39</ele>
        <time>2016-06-10T13:31:32Z</time>
      </trkpt>
      <trkpt lat="46.18819" lon="7.15296">
        <ele>1825.2</ele>
        <time>2016-06-10T13:31:47Z</time>
      </trkpt>
      <trkpt lat="46.18816" lon="7.15304">
        <ele>1830.01</ele>
        <time>2016-06-10T13:32:00Z</time>
      </trkpt>
      <trkpt lat="46.18815" lon="7.15308">
        <ele>1830.49</ele>
        <time>2016-06-10T13:32:15Z</time>
      </trkpt>
      <trkpt lat="46.18798" lon="7.15323">
        <ele>1838.66</ele>
        <time>2016-06-10T13:32:34Z</time>
      </trkpt>
      <trkpt lat="46.18785" lon="7.15329">
        <ele>1842.98</ele>
        <time>2016-06-10T13:32:47Z</time>
      </trkpt>
      <trkpt lat="46.18781" lon="7.15331">
        <ele>1843.47</ele>
        <time>2016-06-10T13:33:01Z</time>
      </trkpt>
      <trkpt lat="46.18768" lon="7.15329">
        <ele>1844.91</ele>
        <time>2016-06-10T13:33:16Z</time>
      </trkpt>
      <trkpt lat="46.18763" lon="7.1533">
        <ele>1848.27</ele>
        <time>2016-06-10T13:33:31Z</time>
      </trkpt>
      <trkpt lat="46.18739" lon="7.15334">
        <ele>1849.23</ele>
        <time>2016-06-10T13:33:45Z</time>
      </trkpt>
      <trkpt lat="46.18734" lon="7.15335">
        <ele>1850.68</ele>
        <time>2016-06-10T13:33:57Z</time>
      </trkpt>
      <trkpt lat="46.18734" lon="7.15337">
        <ele>1848.75</ele>
        <time>2016-06-10T13:34:37Z</time>
      </trkpt>
      <trkpt lat="46.18732" lon="7.15336">
        <ele>1852.12</ele>
        <time>2016-06-10T13:34:49Z</time>
      </trkpt>
      <trkpt lat="46.18726" lon="7.15331">
        <ele>1854.52</ele>
        <time>2016-06-10T13:35:04Z</time>
      </trkpt>
      <trkpt lat="46.18719" lon="7.15332">
        <ele>1855.48</ele>
        <time>2016-06-10T13:35:20Z</time>
      </trkpt>
      <trkpt lat="46.18714" lon="7.15336">
        <ele>1848.27</ele>
        <time>2016-06-10T13:35:37Z</time>
      </trkpt>
      <trkpt lat="46.18713" lon="7.15336">
        <ele>1848.27</ele>
        <time>2016-06-10T13:35:39Z</time>
      </trkpt>
      <trkpt lat="46.187" lon="7.15332">
        <ele>1850.68</ele>
        <time>2016-06-10T13:35:52Z</time>
      </trkpt>
      <trkpt lat="46.18694" lon="7.15331">
        <ele>1853.56</ele>
        <time>2016-06-10T13:36:08Z</time>
      </trkpt>
      <trkpt lat="46.1868" lon="7.15335">
        <ele>1857.4</ele>
        <time>2016-06-10T13:36:24Z</time>
      </trkpt>
      <trkpt lat="46.1867" lon="7.15333">
        <ele>1860.77</ele>
        <time>2016-06-10T13:36:39Z</time>
      </trkpt>
      <trkpt lat="46.18659" lon="7.15334">
        <ele>1864.61</ele>
        <time>2016-06-10T13:36:55Z</time>
      </trkpt>
      <trkpt lat="46.18649" lon="7.15331">
        <ele>1865.58</ele>
        <time>2016-06-10T13:37:10Z</time>
      </trkpt>
      <trkpt lat="46.18632" lon="7.15334">
        <ele>1861.73</ele>
        <time>2016-06-10T13:37:25Z</time>
      </trkpt>
      <trkpt lat="46.18629" lon="7.15334">
        <ele>1862.21</ele>
        <time>2016-06-10T13:37:38Z</time>
      </trkpt>
      <trkpt lat="46.18624" lon="7.15336">
        <ele>1865.09</ele>
        <time>2016-06-10T13:37:53Z</time>
      </trkpt>
      <trkpt lat="46.18615" lon="7.15332">
        <ele>1866.06</ele>
        <time>2016-06-10T13:38:06Z</time>
      </trkpt>
      <trkpt lat="46.18602" lon="7.15327">
        <ele>1868.46</ele>
        <time>2016-06-10T13:38:19Z</time>
      </trkpt>
      <trkpt lat="46.18586" lon="7.15334">
        <ele>1875.19</ele>
        <time>2016-06-10T13:38:32Z</time>
      </trkpt>
      <trkpt lat="46.18576" lon="7.15325">
        <ele>1877.11</ele>
        <time>2016-06-10T13:38:45Z</time>
      </trkpt>
      <trkpt lat="46.18568" lon="7.1532">
        <ele>1879.51</ele>
        <time>2016-06-10T13:38:59Z</time>
      </trkpt>
      <trkpt lat="46.18556" lon="7.15313">
        <ele>1884.32</ele>
        <time>2016-06-10T13:39:15Z</time>
      </trkpt>
      <trkpt lat="46.1855" lon="7.15311">
        <ele>1886.72</ele>
        <time>2016-06-10T13:39:27Z</time>
      </trkpt>
      <trkpt lat="46.18544" lon="7.15311">
        <ele>1887.21</ele>
        <time>2016-06-10T13:39:41Z</time>
      </trkpt>
      <trkpt lat="46.18538" lon="7.15311">
        <ele>1889.13</ele>
        <time>2016-06-10T13:39:58Z</time>
      </trkpt>
      <trkpt lat="46.18526" lon="7.15314">
        <ele>1899.7</ele>
        <time>2016-06-10T13:40:13Z</time>
      </trkpt>
      <trkpt lat="46.18518" lon="7.15308">
        <ele>1904.99</ele>
        <time>2016-06-10T13:40:27Z</time>
      </trkpt>
      <trkpt lat="46.18504" lon="7.15305">
        <ele>1903.07</ele>
        <time>2016-06-10T13:40:41Z</time>
      </trkpt>
      <trkpt lat="46.18488" lon="7.153">
        <ele>1902.59</ele>
        <time>2016-06-10T13:40:56Z</time>
      </trkpt>
      <trkpt lat="46.18483" lon="7.15298">
        <ele>1906.43</ele>
        <time>2016-06-10T13:41:10Z</time>
      </trkpt>
      <trkpt lat="46.18473" lon="7.15295">
        <ele>1906.91</ele>
        <time>2016-06-10T13:41:25Z</time>
      </trkpt>
      <trkpt lat="46.1846" lon="7.15293">
        <ele>1908.35</ele>
        <time>2016-06-10T13:41:40Z</time>
      </trkpt>
      <trkpt lat="46.18451" lon="7.15291">
        <ele>1913.64</ele>
        <time>2016-06-10T13:41:54Z</time>
      </trkpt>
      <trkpt lat="46.18443" lon="7.15285">
        <ele>1912.2</ele>
        <time>2016-06-10T13:42:08Z</time>
      </trkpt>
      <trkpt lat="46.18429" lon="7.15275">
        <ele>1911.72</ele>
        <time>2016-06-10T13:42:21Z</time>
      </trkpt>
      <trkpt lat="46.18419" lon="7.15269">
        <ele>1913.16</ele>
        <time>2016-06-10T13:42:37Z</time>
      </trkpt>
      <trkpt lat="46.18413" lon="7.15268">
        <ele>1913.16</ele>
        <time>2016-06-10T13:42:49Z</time>
      </trkpt>
      <trkpt lat="46.18403" lon="7.15263">
        <ele>1916.53</ele>
        <time>2016-06-10T13:43:05Z</time>
      </trkpt>
      <trkpt lat="46.18388" lon="7.15257">
        <ele>1918.45</ele>
        <time>2016-06-10T13:43:19Z</time>
      </trkpt>
      <trkpt lat="46.18375" lon="7.15248">
        <ele>1920.37</ele>
        <time>2016-06-10T13:43:36Z</time>
      </trkpt>
      <trkpt lat="46.18365" lon="7.15238">
        <ele>1918.93</ele>
        <time>2016-06-10T13:43:54Z</time>
      </trkpt>
      <trkpt lat="46.18358" lon="7.15229">
        <ele>1920.85</ele>
        <time>2016-06-10T13:44:08Z</time>
      </trkpt>
      <trkpt lat="46.18353" lon="7.15228">
        <ele>1921.33</ele>
        <time>2016-06-10T13:44:21Z</time>
      </trkpt>
      <trkpt lat="46.18343" lon="7.15224">
        <ele>1924.22</ele>
        <time>2016-06-10T13:44:35Z</time>
      </trkpt>
      <trkpt lat="46.18333" lon="7.15222">
        <ele>1928.06</ele>
        <time>2016-06-10T13:44:49Z</time>
      </trkpt>
      <trkpt lat="46.18326" lon="7.15223">
        <ele>1927.1</ele>
        <time>2016-06-10T13:45:02Z</time>
      </trkpt>
      <trkpt lat="46.18326" lon="7.15221">
        <ele>1925.18</ele>
        <time>2016-06-10T13:45:19Z</time>
      </trkpt>
      <trkpt lat="46.18324" lon="7.15217">
        <ele>1929.02</ele>
        <time>2016-06-10T13:45:34Z</time>
      </trkpt>
      <trkpt lat="46.1832" lon="7.15214">
        <ele>1931.43</ele>
        <time>2016-06-10T13:45:54Z</time>
      </trkpt>
      <trkpt lat="46.18319" lon="7.15213">
        <ele>1931.91</ele>
        <time>2016-06-10T13:46:07Z</time>
      </trkpt>
      <trkpt lat="46.18316" lon="7.15201">
        <ele>1934.79</ele>
        <time>2016-06-10T13:46:20Z</time>
      </trkpt>
      <trkpt lat="46.18311" lon="7.15189">
        <ele>1940.08</ele>
        <time>2016-06-10T13:46:35Z</time>
      </trkpt>
      <trkpt lat="46.18304" lon="7.15179">
        <ele>1942.48</ele>
        <time>2016-06-10T13:46:51Z</time>
      </trkpt>
      <trkpt lat="46.18297" lon="7.15176">
        <ele>1942</ele>
        <time>2016-06-10T13:47:03Z</time>
      </trkpt>
      <trkpt lat="46.18294" lon="7.15174">
        <ele>1942</ele>
        <time>2016-06-10T13:47:08Z</time>
      </trkpt>
      <trkpt lat="46.18287" lon="7.15171">
        <ele>1943.92</ele>
        <time>2016-06-10T13:47:20Z</time>
      </trkpt>
      <trkpt lat="46.18286" lon="7.15169">
        <ele>1945.85</ele>
        <time>2016-06-10T13:47:25Z</time>
      </trkpt>
      <trkpt lat="46.18286" lon="7.15168">
        <ele>1945.85</ele>
        <time>2016-06-10T13:47:39Z</time>
      </trkpt>
      <trkpt lat="46.18285" lon="7.15167">
        <ele>1946.33</ele>
        <time>2016-06-10T13:47:54Z</time>
      </trkpt>
      <trkpt lat="46.18285" lon="7.15167">
        <ele>1945.85</ele>
        <time>2016-06-10T13:48:00Z</time>
      </trkpt>
      <trkpt lat="46.18282" lon="7.15166">
        <ele>1944.4</ele>
        <time>2016-06-10T13:48:05Z</time>
      </trkpt>
      <trkpt lat="46.18278" lon="7.15166">
        <ele>1942.48</ele>
        <time>2016-06-10T13:48:10Z</time>
      </trkpt>
      <trkpt lat="46.18269" lon="7.15163">
        <ele>1941.52</ele>
        <time>2016-06-10T13:48:20Z</time>
      </trkpt>
      <trkpt lat="46.18256" lon="7.15164">
        <ele>1941.04</ele>
        <time>2016-06-10T13:48:32Z</time>
      </trkpt>
      <trkpt lat="46.18241" lon="7.15173">
        <ele>1940.08</ele>
        <time>2016-06-10T13:48:45Z</time>
      </trkpt>
      <trkpt lat="46.1824" lon="7.15174">
        <ele>1940.08</ele>
        <time>2016-06-10T13:48:46Z</time>
      </trkpt>
      <trkpt lat="46.18234" lon="7.1518">
        <ele>1939.6</ele>
        <time>2016-06-10T13:48:53Z</time>
      </trkpt>
      <trkpt lat="46.1823" lon="7.15182">
        <ele>1939.6</ele>
        <time>2016-06-10T13:48:57Z</time>
      </trkpt>
      <trkpt lat="46.18226" lon="7.15183">
        <ele>1940.08</ele>
        <time>2016-06-10T13:49:01Z</time>
      </trkpt>
      <trkpt lat="46.18213" lon="7.15196">
        <ele>1942</ele>
        <time>2016-06-10T13:49:16Z</time>
      </trkpt>
      <trkpt lat="46.18199" lon="7.15207">
        <ele>1942.96</ele>
        <time>2016-06-10T13:49:31Z</time>
      </trkpt>
      <trkpt lat="46.1819" lon="7.15212">
        <ele>1945.36</ele>
        <time>2016-06-10T13:49:44Z</time>
      </trkpt>
      <trkpt lat="46.18178" lon="7.15213">
        <ele>1951.13</ele>
        <time>2016-06-10T13:49:59Z</time>
      </trkpt>
      <trkpt lat="46.18171" lon="7.15207">
        <ele>1954.5</ele>
        <time>2016-06-10T13:50:13Z</time>
      </trkpt>
      <trkpt lat="46.18163" lon="7.15203">
        <ele>1957.86</ele>
        <time>2016-06-10T13:50:27Z</time>
      </trkpt>
      <trkpt lat="46.18154" lon="7.152">
        <ele>1961.71</ele>
        <time>2016-06-10T13:50:43Z</time>
      </trkpt>
      <trkpt lat="46.18145" lon="7.15197">
        <ele>1963.63</ele>
        <time>2016-06-10T13:50:58Z</time>
      </trkpt>
      <trkpt lat="46.18136" lon="7.15192">
        <ele>1966.99</ele>
        <time>2016-06-10T13:51:14Z</time>
      </trkpt>
      <trkpt lat="46.18134" lon="7.15185">
        <ele>1971.32</ele>
        <time>2016-06-10T13:51:28Z</time>
      </trkpt>
      <trkpt lat="46.18127" lon="7.15177">
        <ele>1974.2</ele>
        <time>2016-06-10T13:51:42Z</time>
      </trkpt>
      <trkpt lat="46.18118" lon="7.15169">
        <ele>1975.65</ele>
        <time>2016-06-10T13:51:56Z</time>
      </trkpt>
      <trkpt lat="46.18112" lon="7.15163">
        <ele>1978.53</ele>
        <time>2016-06-10T13:52:11Z</time>
      </trkpt>
      <trkpt lat="46.18102" lon="7.15157">
        <ele>1982.38</ele>
        <time>2016-06-10T13:52:27Z</time>
      </trkpt>
      <trkpt lat="46.18091" lon="7.15151">
        <ele>1985.26</ele>
        <time>2016-06-10T13:52:42Z</time>
      </trkpt>
      <trkpt lat="46.18082" lon="7.15147">
        <ele>1988.14</ele>
        <time>2016-06-10T13:52:58Z</time>
      </trkpt>
      <trkpt lat="46.18072" lon="7.15144">
        <ele>1989.59</ele>
        <time>2016-06-10T13:53:11Z</time>
      </trkpt>
      <trkpt lat="46.18062" lon="7.15143">
        <ele>1991.03</ele>
        <time>2016-06-10T13:53:26Z</time>
      </trkpt>
      <trkpt lat="46.18055" lon="7.15139">
        <ele>1992.47</ele>
        <time>2016-06-10T13:53:39Z</time>
      </trkpt>
      <trkpt lat="46.18054" lon="7.15141">
        <ele>1992.47</ele>
        <time>2016-06-10T13:53:53Z</time>
      </trkpt>
      <trkpt lat="46.18055" lon="7.15142">
        <ele>1991.51</ele>
        <time>2016-06-10T13:54:06Z</time>
      </trkpt>
      <trkpt lat="46.18051" lon="7.15141">
        <ele>1990.07</ele>
        <time>2016-06-10T13:54:22Z</time>
      </trkpt>
      <trkpt lat="46.18048" lon="7.15145">
        <ele>1991.51</ele>
        <time>2016-06-10T13:54:40Z</time>
      </trkpt>
      <trkpt lat="46.18046" lon="7.15146">
        <ele>1992.95</ele>
        <time>2016-06-10T13:54:59Z</time>
      </trkpt>
      <trkpt lat="46.18042" lon="7.15151">
        <ele>1993.91</ele>
        <time>2016-06-10T13:55:16Z</time>
      </trkpt>
      <trkpt lat="46.18041" lon="7.15152">
        <ele>1993.43</ele>
        <time>2016-06-10T13:55:40Z</time>
      </trkpt>
      <trkpt lat="46.18034" lon="7.15155">
        <ele>1994.39</ele>
        <time>2016-06-10T13:55:53Z</time>
      </trkpt>
      <trkpt lat="46.18026" lon="7.15161">
        <ele>1997.28</ele>
        <time>2016-06-10T13:56:06Z</time>
      </trkpt>
      <trkpt lat="46.18019" lon="7.15164">
        <ele>2000.16</ele>
        <time>2016-06-10T13:56:20Z</time>
      </trkpt>
      <trkpt lat="46.18008" lon="7.15167">
        <ele>2002.08</ele>
        <time>2016-06-10T13:56:35Z</time>
      </trkpt>
      <trkpt lat="46.18006" lon="7.15177">
        <ele>2004.49</ele>
        <time>2016-06-10T13:56:48Z</time>
      </trkpt>
      <trkpt lat="46.18002" lon="7.15181">
        <ele>2004.97</ele>
        <time>2016-06-10T13:56:56Z</time>
      </trkpt>
      <trkpt lat="46.17998" lon="7.15186">
        <ele>2006.89</ele>
        <time>2016-06-10T13:57:10Z</time>
      </trkpt>
      <trkpt lat="46.17989" lon="7.15183">
        <ele>2007.85</ele>
        <time>2016-06-10T13:57:25Z</time>
      </trkpt>
      <trkpt lat="46.1798" lon="7.15182">
        <ele>2012.18</ele>
        <time>2016-06-10T13:57:39Z</time>
      </trkpt>
      <trkpt lat="46.17971" lon="7.15177">
        <ele>2016.02</ele>
        <time>2016-06-10T13:57:54Z</time>
      </trkpt>
      <trkpt lat="46.17966" lon="7.15174">
        <ele>2017.94</ele>
        <time>2016-06-10T13:58:08Z</time>
      </trkpt>
      <trkpt lat="46.1796" lon="7.15172">
        <ele>2019.39</ele>
        <time>2016-06-10T13:58:21Z</time>
      </trkpt>
      <trkpt lat="46.17949" lon="7.15172">
        <ele>2022.27</ele>
        <time>2016-06-10T13:58:36Z</time>
      </trkpt>
      <trkpt lat="46.17938" lon="7.15169">
        <ele>2023.71</ele>
        <time>2016-06-10T13:58:52Z</time>
      </trkpt>
      <trkpt lat="46.1793" lon="7.1517">
        <ele>2024.19</ele>
        <time>2016-06-10T13:59:06Z</time>
      </trkpt>
      <trkpt lat="46.17927" lon="7.1517">
        <ele>2032.36</ele>
        <time>2016-06-10T13:59:20Z</time>
      </trkpt>
      <trkpt lat="46.17925" lon="7.15163">
        <ele>2036.21</ele>
        <time>2016-06-10T13:59:35Z</time>
      </trkpt>
      <trkpt lat="46.17922" lon="7.15158">
        <ele>2037.65</ele>
        <time>2016-06-10T13:59:48Z</time>
      </trkpt>
      <trkpt lat="46.17912" lon="7.15151">
        <ele>2039.09</ele>
        <time>2016-06-10T14:00:02Z</time>
      </trkpt>
      <trkpt lat="46.17906" lon="7.15145">
        <ele>2041.98</ele>
        <time>2016-06-10T14:00:15Z</time>
      </trkpt>
      <trkpt lat="46.17904" lon="7.15144">
        <ele>2043.9</ele>
        <time>2016-06-10T14:00:28Z</time>
      </trkpt>
      <trkpt lat="46.179" lon="7.1514">
        <ele>2049.67</ele>
        <time>2016-06-10T14:00:41Z</time>
      </trkpt>
      <trkpt lat="46.17893" lon="7.1513">
        <ele>2052.07</ele>
        <time>2016-06-10T14:00:55Z</time>
      </trkpt>
      <trkpt lat="46.17887" lon="7.15126">
        <ele>2050.15</ele>
        <time>2016-06-10T14:01:04Z</time>
      </trkpt>
      <trkpt lat="46.17878" lon="7.15127">
        <ele>2049.67</ele>
        <time>2016-06-10T14:01:18Z</time>
      </trkpt>
      <trkpt lat="46.17875" lon="7.15127">
        <ele>2048.71</ele>
        <time>2016-06-10T14:01:32Z</time>
      </trkpt>
      <trkpt lat="46.1787" lon="7.15127">
        <ele>2052.55</ele>
        <time>2016-06-10T14:01:50Z</time>
      </trkpt>
      <trkpt lat="46.17865" lon="7.15118">
        <ele>2054.47</ele>
        <time>2016-06-10T14:02:04Z</time>
      </trkpt>
      <trkpt lat="46.17858" lon="7.15109">
        <ele>2062.65</ele>
        <time>2016-06-10T14:02:22Z</time>
      </trkpt>
      <trkpt lat="46.17853" lon="7.151">
        <ele>2066.49</ele>
        <time>2016-06-10T14:02:38Z</time>
      </trkpt>
      <trkpt lat="46.1785" lon="7.15089">
        <ele>2068.89</ele>
        <time>2016-06-10T14:02:51Z</time>
      </trkpt>
      <trkpt lat="46.17845" lon="7.15084">
        <ele>2070.34</ele>
        <time>2016-06-10T14:03:08Z</time>
      </trkpt>
      <trkpt lat="46.17845" lon="7.15082">
        <ele>2070.34</ele>
        <time>2016-06-10T14:03:20Z</time>
      </trkpt>
      <trkpt lat="46.17841" lon="7.15076">
        <ele>2072.74</ele>
        <time>2016-06-10T14:03:39Z</time>
      </trkpt>
      <trkpt lat="46.17833" lon="7.1507">
        <ele>2079.47</ele>
        <time>2016-06-10T14:03:54Z</time>
      </trkpt>
      <trkpt lat="46.17832" lon="7.15067">
        <ele>2084.28</ele>
        <time>2016-06-10T14:04:09Z</time>
      </trkpt>
      <trkpt lat="46.17834" lon="7.15059">
        <ele>2089.56</ele>
        <time>2016-06-10T14:04:27Z</time>
      </trkpt>
      <trkpt lat="46.17836" lon="7.15053">
        <ele>2092.45</ele>
        <time>2016-06-10T14:04:46Z</time>
      </trkpt>
      <trkpt lat="46.17841" lon="7.15034">
        <ele>2095.81</ele>
        <time>2016-06-10T14:05:00Z</time>
      </trkpt>
      <trkpt lat="46.17842" lon="7.1503">
        <ele>2097.25</ele>
        <time>2016-06-10T14:05:05Z</time>
      </trkpt>
      <trkpt lat="46.17854" lon="7.15017">
        <ele>2103.5</ele>
        <time>2016-06-10T14:05:21Z</time>
      </trkpt>
      <trkpt lat="46.17863" lon="7.15008">
        <ele>2106.39</ele>
        <time>2016-06-10T14:05:35Z</time>
      </trkpt>
      <trkpt lat="46.17862" lon="7.15">
        <ele>2109.75</ele>
        <time>2016-06-10T14:05:50Z</time>
      </trkpt>
      <trkpt lat="46.17861" lon="7.14988">
        <ele>2112.63</ele>
        <time>2016-06-10T14:06:06Z</time>
      </trkpt>
      <trkpt lat="46.17861" lon="7.14974">
        <ele>2113.12</ele>
        <time>2016-06-10T14:06:21Z</time>
      </trkpt>
      <trkpt lat="46.17859" lon="7.14957">
        <ele>2113.12</ele>
        <time>2016-06-10T14:06:35Z</time>
      </trkpt>
      <trkpt lat="46.17853" lon="7.14939">
        <ele>2115.52</ele>
        <time>2016-06-10T14:06:50Z</time>
      </trkpt>
      <trkpt lat="46.17845" lon="7.14929">
        <ele>2118.88</ele>
        <time>2016-06-10T14:07:07Z</time>
      </trkpt>
      <trkpt lat="46.17841" lon="7.14917">
        <ele>2121.29</ele>
        <time>2016-06-10T14:07:26Z</time>
      </trkpt>
      <trkpt lat="46.17832" lon="7.14907">
        <ele>2123.21</ele>
        <time>2016-06-10T14:07:40Z</time>
      </trkpt>
      <trkpt lat="46.17827" lon="7.14895">
        <ele>2125.61</ele>
        <time>2016-06-10T14:07:55Z</time>
      </trkpt>
      <trkpt lat="46.17817" lon="7.14889">
        <ele>2128.02</ele>
        <time>2016-06-10T14:08:09Z</time>
      </trkpt>
      <trkpt lat="46.17815" lon="7.14881">
        <ele>2130.42</ele>
        <time>2016-06-10T14:08:21Z</time>
      </trkpt>
      <trkpt lat="46.17814" lon="7.14869">
        <ele>2132.34</ele>
        <time>2016-06-10T14:08:38Z</time>
      </trkpt>
      <trkpt lat="46.17811" lon="7.14852">
        <ele>2134.74</ele>
        <time>2016-06-10T14:08:54Z</time>
      </trkpt>
      <trkpt lat="46.17809" lon="7.14837">
        <ele>2136.67</ele>
        <time>2016-06-10T14:09:08Z</time>
      </trkpt>
      <trkpt lat="46.17804" lon="7.14824">
        <ele>2140.03</ele>
        <time>2016-06-10T14:09:24Z</time>
      </trkpt>
      <trkpt lat="46.17797" lon="7.1481">
        <ele>2143.4</ele>
        <time>2016-06-10T14:09:42Z</time>
      </trkpt>
      <trkpt lat="46.1779" lon="7.14798">
        <ele>2145.32</ele>
        <time>2016-06-10T14:09:58Z</time>
      </trkpt>
      <trkpt lat="46.17787" lon="7.14793">
        <ele>2145.8</ele>
        <time>2016-06-10T14:10:06Z</time>
      </trkpt>
      <trkpt lat="46.17782" lon="7.14782">
        <ele>2145.32</ele>
        <time>2016-06-10T14:10:15Z</time>
      </trkpt>
      <trkpt lat="46.1777" lon="7.14769">
        <ele>2144.84</ele>
        <time>2016-06-10T14:10:30Z</time>
      </trkpt>
      <trkpt lat="46.17768" lon="7.14765">
        <ele>2144.84</ele>
        <time>2016-06-10T14:10:43Z</time>
      </trkpt>
      <trkpt lat="46.17768" lon="7.14765">
        <ele>2144.36</ele>
        <time>2016-06-10T14:10:59Z</time>
      </trkpt>
      <trkpt lat="46.17768" lon="7.14766">
        <ele>2144.84</ele>
        <time>2016-06-10T14:11:21Z</time>
      </trkpt>
      <trkpt lat="46.17768" lon="7.14766">
        <ele>2144.36</ele>
        <time>2016-06-10T14:11:41Z</time>
      </trkpt>
      <trkpt lat="46.17768" lon="7.14767">
        <ele>2144.36</ele>
        <time>2016-06-10T14:11:47Z</time>
      </trkpt>
      <trkpt lat="46.17777" lon="7.14771">
        <ele>2143.88</ele>
        <time>2016-06-10T14:11:56Z</time>
      </trkpt>
      <trkpt lat="46.17779" lon="7.14771">
        <ele>2143.88</ele>
        <time>2016-06-10T14:11:58Z</time>
      </trkpt>
      <trkpt lat="46.17797" lon="7.14774">
        <ele>2141.47</ele>
        <time>2016-06-10T14:12:15Z</time>
      </trkpt>
      <trkpt lat="46.17811" lon="7.14783">
        <ele>2140.51</ele>
        <time>2016-06-10T14:12:29Z</time>
      </trkpt>
      <trkpt lat="46.17832" lon="7.14793">
        <ele>2139.07</ele>
        <time>2016-06-10T14:12:47Z</time>
      </trkpt>
      <trkpt lat="46.17849" lon="7.14803">
        <ele>2135.23</ele>
        <time>2016-06-10T14:13:02Z</time>
      </trkpt>
      <trkpt lat="46.17853" lon="7.14801">
        <ele>2135.23</ele>
        <time>2016-06-10T14:13:15Z</time>
      </trkpt>
      <trkpt lat="46.17867" lon="7.14802">
        <ele>2134.26</ele>
        <time>2016-06-10T14:13:32Z</time>
      </trkpt>
      <trkpt lat="46.17868" lon="7.14802">
        <ele>2134.26</ele>
        <time>2016-06-10T14:13:33Z</time>
      </trkpt>
      <trkpt lat="46.17877" lon="7.14803">
        <ele>2133.78</ele>
        <time>2016-06-10T14:13:40Z</time>
      </trkpt>
      <trkpt lat="46.17883" lon="7.14802">
        <ele>2131.86</ele>
        <time>2016-06-10T14:13:45Z</time>
      </trkpt>
      <trkpt lat="46.17894" lon="7.14794">
        <ele>2129.94</ele>
        <time>2016-06-10T14:13:57Z</time>
      </trkpt>
      <trkpt lat="46.17897" lon="7.14797">
        <ele>2129.46</ele>
        <time>2016-06-10T14:14:01Z</time>
      </trkpt>
      <trkpt lat="46.17901" lon="7.148">
        <ele>2128.5</ele>
        <time>2016-06-10T14:14:05Z</time>
      </trkpt>
      <trkpt lat="46.17917" lon="7.14802">
        <ele>2123.69</ele>
        <time>2016-06-10T14:14:20Z</time>
      </trkpt>
      <trkpt lat="46.17927" lon="7.14803">
        <ele>2120.81</ele>
        <time>2016-06-10T14:14:32Z</time>
      </trkpt>
      <trkpt lat="46.17928" lon="7.14801">
        <ele>2120.81</ele>
        <time>2016-06-10T14:14:35Z</time>
      </trkpt>
      <trkpt lat="46.17934" lon="7.14784">
        <ele>2122.25</ele>
        <time>2016-06-10T14:14:51Z</time>
      </trkpt>
      <trkpt lat="46.17942" lon="7.14773">
        <ele>2123.21</ele>
        <time>2016-06-10T14:15:05Z</time>
      </trkpt>
      <trkpt lat="46.17945" lon="7.14765">
        <ele>2124.65</ele>
        <time>2016-06-10T14:15:13Z</time>
      </trkpt>
      <trkpt lat="46.17958" lon="7.14749">
        <ele>2126.09</ele>
        <time>2016-06-10T14:15:29Z</time>
      </trkpt>
      <trkpt lat="46.17966" lon="7.14736">
        <ele>2125.61</ele>
        <time>2016-06-10T14:15:40Z</time>
      </trkpt>
      <trkpt lat="46.17979" lon="7.14728">
        <ele>2125.61</ele>
        <time>2016-06-10T14:15:53Z</time>
      </trkpt>
      <trkpt lat="46.1799" lon="7.14716">
        <ele>2121.29</ele>
        <time>2016-06-10T14:16:07Z</time>
      </trkpt>
      <trkpt lat="46.17992" lon="7.14713">
        <ele>2120.81</ele>
        <time>2016-06-10T14:16:10Z</time>
      </trkpt>
      <trkpt lat="46.18002" lon="7.14712">
        <ele>2119.84</ele>
        <time>2016-06-10T14:16:19Z</time>
      </trkpt>
      <trkpt lat="46.18019" lon="7.14715">
        <ele>2122.73</ele>
        <time>2016-06-10T14:16:37Z</time>
      </trkpt>
      <trkpt lat="46.18031" lon="7.14718">
        <ele>2124.17</ele>
        <time>2016-06-10T14:16:51Z</time>
      </trkpt>
      <trkpt lat="46.18044" lon="7.14717">
        <ele>2124.17</ele>
        <time>2016-06-10T14:17:07Z</time>
      </trkpt>
      <trkpt lat="46.18045" lon="7.14718">
        <ele>2125.13</ele>
        <time>2016-06-10T14:17:10Z</time>
      </trkpt>
      <trkpt lat="46.18056" lon="7.14717">
        <ele>2128.02</ele>
        <time>2016-06-10T14:17:24Z</time>
      </trkpt>
      <trkpt lat="46.18062" lon="7.1472">
        <ele>2129.94</ele>
        <time>2016-06-10T14:17:40Z</time>
      </trkpt>
      <trkpt lat="46.18061" lon="7.14719">
        <ele>2130.42</ele>
        <time>2016-06-10T14:18:03Z</time>
      </trkpt>
      <trkpt lat="46.1806" lon="7.1472">
        <ele>2131.86</ele>
        <time>2016-06-10T14:18:22Z</time>
      </trkpt>
      <trkpt lat="46.1806" lon="7.14718">
        <ele>2130.9</ele>
        <time>2016-06-10T14:18:39Z</time>
      </trkpt>
      <trkpt lat="46.18061" lon="7.14718">
        <ele>2131.86</ele>
        <time>2016-06-10T14:19:01Z</time>
      </trkpt>
      <trkpt lat="46.18061" lon="7.14717">
        <ele>2131.86</ele>
        <time>2016-06-10T14:19:19Z</time>
      </trkpt>
      <trkpt lat="46.18064" lon="7.14719">
        <ele>2132.34</ele>
        <time>2016-06-10T14:19:34Z</time>
      </trkpt>
      <trkpt lat="46.18067" lon="7.1472">
        <ele>2136.67</ele>
        <time>2016-06-10T14:19:46Z</time>
      </trkpt>
      <trkpt lat="46.18067" lon="7.1472">
        <ele>2139.55</ele>
        <time>2016-06-10T14:19:59Z</time>
      </trkpt>
      <trkpt lat="46.18063" lon="7.14702">
        <ele>2140.03</ele>
        <time>2016-06-10T14:20:16Z</time>
      </trkpt>
      <trkpt lat="46.18065" lon="7.14703">
        <ele>2145.32</ele>
        <time>2016-06-10T14:20:29Z</time>
      </trkpt>
      <trkpt lat="46.18065" lon="7.14704">
        <ele>2145.32</ele>
        <time>2016-06-10T14:20:30Z</time>
      </trkpt>
      <trkpt lat="46.1808" lon="7.14712">
        <ele>2142.92</ele>
        <time>2016-06-10T14:20:45Z</time>
      </trkpt>
      <trkpt lat="46.18089" lon="7.14713">
        <ele>2142.92</ele>
        <time>2016-06-10T14:20:53Z</time>
      </trkpt>
      <trkpt lat="46.18101" lon="7.1472">
        <ele>2143.88</ele>
        <time>2016-06-10T14:21:07Z</time>
      </trkpt>
      <trkpt lat="46.1811" lon="7.14718">
        <ele>2146.28</ele>
        <time>2016-06-10T14:21:18Z</time>
      </trkpt>
      <trkpt lat="46.18116" lon="7.14723">
        <ele>2150.13</ele>
        <time>2016-06-10T14:21:33Z</time>
      </trkpt>
      <trkpt lat="46.18117" lon="7.14723">
        <ele>2151.09</ele>
        <time>2016-06-10T14:21:44Z</time>
      </trkpt>
      <trkpt lat="46.18118" lon="7.14728">
        <ele>2152.05</ele>
        <time>2016-06-10T14:21:57Z</time>
      </trkpt>
      <trkpt lat="46.18132" lon="7.14734">
        <ele>2156.86</ele>
        <time>2016-06-10T14:22:11Z</time>
      </trkpt>
      <trkpt lat="46.18152" lon="7.1473">
        <ele>2160.7</ele>
        <time>2016-06-10T14:22:28Z</time>
      </trkpt>
      <trkpt lat="46.18155" lon="7.14728">
        <ele>2160.22</ele>
        <time>2016-06-10T14:22:31Z</time>
      </trkpt>
      <trkpt lat="46.18162" lon="7.1472">
        <ele>2158.78</ele>
        <time>2016-06-10T14:22:38Z</time>
      </trkpt>
      <trkpt lat="46.18167" lon="7.14712">
        <ele>2156.37</ele>
        <time>2016-06-10T14:22:44Z</time>
      </trkpt>
      <trkpt lat="46.18187" lon="7.14698">
        <ele>2153.97</ele>
        <time>2016-06-10T14:23:00Z</time>
      </trkpt>
      <trkpt lat="46.18205" lon="7.14688">
        <ele>2150.61</ele>
        <time>2016-06-10T14:23:15Z</time>
      </trkpt>
      <trkpt lat="46.18212" lon="7.14685">
        <ele>2148.68</ele>
        <time>2016-06-10T14:23:21Z</time>
      </trkpt>
      <trkpt lat="46.18224" lon="7.14672">
        <ele>2150.61</ele>
        <time>2016-06-10T14:23:36Z</time>
      </trkpt>
      <trkpt lat="46.18231" lon="7.1467">
        <ele>2154.93</ele>
        <time>2016-06-10T14:23:46Z</time>
      </trkpt>
      <trkpt lat="46.18242" lon="7.14667">
        <ele>2158.78</ele>
        <time>2016-06-10T14:24:00Z</time>
      </trkpt>
      <trkpt lat="46.18255" lon="7.14653">
        <ele>2160.22</ele>
        <time>2016-06-10T14:24:17Z</time>
      </trkpt>
      <trkpt lat="46.18267" lon="7.14637">
        <ele>2160.22</ele>
        <time>2016-06-10T14:24:34Z</time>
      </trkpt>
      <trkpt lat="46.18282" lon="7.14627">
        <ele>2162.14</ele>
        <time>2016-06-10T14:24:49Z</time>
      </trkpt>
      <trkpt lat="46.18286" lon="7.14624">
        <ele>2161.18</ele>
        <time>2016-06-10T14:24:52Z</time>
      </trkpt>
      <trkpt lat="46.18295" lon="7.14619">
        <ele>2161.66</ele>
        <time>2016-06-10T14:25:01Z</time>
      </trkpt>
      <trkpt lat="46.18313" lon="7.14614">
        <ele>2159.26</ele>
        <time>2016-06-10T14:25:17Z</time>
      </trkpt>
      <trkpt lat="46.18315" lon="7.14612">
        <ele>2159.26</ele>
        <time>2016-06-10T14:25:19Z</time>
      </trkpt>
      <trkpt lat="46.1832" lon="7.14609">
        <ele>2159.26</ele>
        <time>2016-06-10T14:25:23Z</time>
      </trkpt>
      <trkpt lat="46.1834" lon="7.14605">
        <ele>2157.34</ele>
        <time>2016-06-10T14:25:40Z</time>
      </trkpt>
      <trkpt lat="46.18358" lon="7.146">
        <ele>2155.89</ele>
        <time>2016-06-10T14:25:54Z</time>
      </trkpt>
      <trkpt lat="46.18376" lon="7.14597">
        <ele>2153.97</ele>
        <time>2016-06-10T14:26:10Z</time>
      </trkpt>
      <trkpt lat="46.18397" lon="7.14594">
        <ele>2150.13</ele>
        <time>2016-06-10T14:26:26Z</time>
      </trkpt>
      <trkpt lat="46.18404" lon="7.1459">
        <ele>2149.65</ele>
        <time>2016-06-10T14:26:32Z</time>
      </trkpt>
      <trkpt lat="46.18423" lon="7.14582">
        <ele>2148.2</ele>
        <time>2016-06-10T14:26:47Z</time>
      </trkpt>
      <trkpt lat="46.18426" lon="7.14581">
        <ele>2148.2</ele>
        <time>2016-06-10T14:26:50Z</time>
      </trkpt>
      <trkpt lat="46.18444" lon="7.14572">
        <ele>2147.72</ele>
        <time>2016-06-10T14:27:05Z</time>
      </trkpt>
      <trkpt lat="46.18461" lon="7.14564">
        <ele>2145.32</ele>
        <time>2016-06-10T14:27:19Z</time>
      </trkpt>
      <trkpt lat="46.18475" lon="7.14559">
        <ele>2144.36</ele>
        <time>2016-06-10T14:27:29Z</time>
      </trkpt>
      <trkpt lat="46.18488" lon="7.14555">
        <ele>2142.92</ele>
        <time>2016-06-10T14:27:39Z</time>
      </trkpt>
      <trkpt lat="46.18508" lon="7.14556">
        <ele>2144.36</ele>
        <time>2016-06-10T14:27:55Z</time>
      </trkpt>
      <trkpt lat="46.18526" lon="7.14555">
        <ele>2147.24</ele>
        <time>2016-06-10T14:28:10Z</time>
      </trkpt>
      <trkpt lat="46.18542" lon="7.14553">
        <ele>2149.65</ele>
        <time>2016-06-10T14:28:24Z</time>
      </trkpt>
      <trkpt lat="46.1856" lon="7.14557">
        <ele>2150.13</ele>
        <time>2016-06-10T14:28:40Z</time>
      </trkpt>
      <trkpt lat="46.18575" lon="7.14559">
        <ele>2153.49</ele>
        <time>2016-06-10T14:28:55Z</time>
      </trkpt>
      <trkpt lat="46.18593" lon="7.14563">
        <ele>2154.93</ele>
        <time>2016-06-10T14:29:11Z</time>
      </trkpt>
      <trkpt lat="46.18596" lon="7.14565">
        <ele>2154.45</ele>
        <time>2016-06-10T14:29:14Z</time>
      </trkpt>
      <trkpt lat="46.18604" lon="7.14567">
        <ele>2153.97</ele>
        <time>2016-06-10T14:29:22Z</time>
      </trkpt>
      <trkpt lat="46.18607" lon="7.14566">
        <ele>2153.97</ele>
        <time>2016-06-10T14:29:34Z</time>
      </trkpt>
      <trkpt lat="46.18608" lon="7.14566">
        <ele>2153.01</ele>
        <time>2016-06-10T14:29:47Z</time>
      </trkpt>
      <trkpt lat="46.18603" lon="7.14563">
        <ele>2150.61</ele>
        <time>2016-06-10T14:30:03Z</time>
      </trkpt>
      <trkpt lat="46.18603" lon="7.14563">
        <ele>2149.65</ele>
        <time>2016-06-10T14:30:21Z</time>
      </trkpt>
      <trkpt lat="46.18603" lon="7.14562">
        <ele>2149.65</ele>
        <time>2016-06-10T14:30:53Z</time>
      </trkpt>
      <trkpt lat="46.18602" lon="7.14562">
        <ele>2149.65</ele>
        <time>2016-06-10T14:31:17Z</time>
      </trkpt>
      <trkpt lat="46.18602" lon="7.14561">
        <ele>2149.65</ele>
        <time>2016-06-10T14:31:43Z</time>
      </trkpt>
      <trkpt lat="46.18602" lon="7.1456">
        <ele>2149.65</ele>
        <time>2016-06-10T14:32:11Z</time>
      </trkpt>
      <trkpt lat="46.18602" lon="7.1456">
        <ele>2149.65</ele>
        <time>2016-06-10T14:32:33Z</time>
      </trkpt>
      <trkpt lat="46.18602" lon="7.14559">
        <ele>2149.16</ele>
        <time>2016-06-10T14:33:06Z</time>
      </trkpt>
      <trkpt lat="46.18602" lon="7.14559">
        <ele>2149.16</ele>
        <time>2016-06-10T14:33:28Z</time>
      </trkpt>
      <trkpt lat="46.18602" lon="7.1456">
        <ele>2149.16</ele>
        <time>2016-06-10T14:33:56Z</time>
      </trkpt>
      <trkpt lat="46.18602" lon="7.14561">
        <ele>2149.65</ele>
        <time>2016-06-10T14:34:24Z</time>
      </trkpt>
      <trkpt lat="46.18602" lon="7.1456">
        <ele>2150.13</ele>
        <time>2016-06-10T14:34:50Z</time>
      </trkpt>
      <trkpt lat="46.18602" lon="7.1456">
        <ele>2150.13</ele>
        <time>2016-06-10T14:35:19Z</time>
      </trkpt>
      <trkpt lat="46.18602" lon="7.14559">
        <ele>2149.65</ele>
        <time>2016-06-10T14:35:40Z</time>
      </trkpt>
      <trkpt lat="46.18603" lon="7.1456">
        <ele>2149.65</ele>
        <time>2016-06-10T14:36:03Z</time>
      </trkpt>
      <trkpt lat="46.18603" lon="7.1456">
        <ele>2149.16</ele>
        <time>2016-06-10T14:36:26Z</time>
      </trkpt>
      <trkpt lat="46.18603" lon="7.1456">
        <ele>2149.16</ele>
        <time>2016-06-10T14:36:46Z</time>
      </trkpt>
      <trkpt lat="46.18602" lon="7.1456">
        <ele>2149.16</ele>
        <time>2016-06-10T14:37:16Z</time>
      </trkpt>
      <trkpt lat="46.18603" lon="7.1456">
        <ele>2149.16</ele>
        <time>2016-06-10T14:37:44Z</time>
      </trkpt>
      <trkpt lat="46.18603" lon="7.1456">
        <ele>2149.16</ele>
        <time>2016-06-10T14:38:06Z</time>
      </trkpt>
      <trkpt lat="46.18602" lon="7.14561">
        <ele>2149.65</ele>
        <time>2016-06-10T14:38:33Z</time>
      </trkpt>
      <trkpt lat="46.18603" lon="7.14561">
        <ele>2150.13</ele>
        <time>2016-06-10T14:39:01Z</time>
      </trkpt>
      <trkpt lat="46.18603" lon="7.1456">
        <ele>2150.61</ele>
        <time>2016-06-10T14:39:27Z</time>
      </trkpt>
      <trkpt lat="46.18603" lon="7.1456">
        <ele>2150.61</ele>
        <time>2016-06-10T14:39:54Z</time>
      </trkpt>
      <trkpt lat="46.18603" lon="7.14561">
        <ele>2150.61</ele>
        <time>2016-06-10T14:40:25Z</time>
      </trkpt>
      <trkpt lat="46.18603" lon="7.1456">
        <ele>2150.13</ele>
        <time>2016-06-10T14:40:53Z</time>
      </trkpt>
      <trkpt lat="46.18603" lon="7.1456">
        <ele>2150.13</ele>
        <time>2016-06-10T14:41:29Z</time>
      </trkpt>
      <trkpt lat="46.18602" lon="7.1456">
        <ele>2149.65</ele>
        <time>2016-06-10T14:41:58Z</time>
      </trkpt>
      <trkpt lat="46.18603" lon="7.1456">
        <ele>2148.68</ele>
        <time>2016-06-10T14:42:31Z</time>
      </trkpt>
      <trkpt lat="46.18603" lon="7.14561">
        <ele>2148.68</ele>
        <time>2016-06-10T14:43:02Z</time>
      </trkpt>
      <trkpt lat="46.18603" lon="7.14561">
        <ele>2148.68</ele>
        <time>2016-06-10T14:43:31Z</time>
      </trkpt>
      <trkpt lat="46.18603" lon="7.14561">
        <ele>2148.2</ele>
        <time>2016-06-10T14:43:59Z</time>
      </trkpt>
      <trkpt lat="46.18603" lon="7.1456">
        <ele>2147.72</ele>
        <time>2016-06-10T14:44:35Z</time>
      </trkpt>
      <trkpt lat="46.18602" lon="7.14561">
        <ele>2147.24</ele>
        <time>2016-06-10T14:44:59Z</time>
      </trkpt>
      <trkpt lat="46.18602" lon="7.14562">
        <ele>2146.76</ele>
        <time>2016-06-10T14:45:22Z</time>
      </trkpt>
      <trkpt lat="46.18602" lon="7.14561">
        <ele>2147.24</ele>
        <time>2016-06-10T14:45:41Z</time>
      </trkpt>
      <trkpt lat="46.18602" lon="7.14559">
        <ele>2148.2</ele>
        <time>2016-06-10T14:46:12Z</time>
      </trkpt>
      <trkpt lat="46.18603" lon="7.14562">
        <ele>2148.2</ele>
        <time>2016-06-10T14:46:32Z</time>
      </trkpt>
      <trkpt lat="46.18607" lon="7.14565">
        <ele>2149.16</ele>
        <time>2016-06-10T14:46:45Z</time>
      </trkpt>
      <trkpt lat="46.18607" lon="7.14564">
        <ele>2148.2</ele>
        <time>2016-06-10T14:47:13Z</time>
      </trkpt>
      <trkpt lat="46.18608" lon="7.14563">
        <ele>2150.13</ele>
        <time>2016-06-10T14:47:43Z</time>
      </trkpt>
      <trkpt lat="46.1862" lon="7.14568">
        <ele>2149.65</ele>
        <time>2016-06-10T14:47:58Z</time>
      </trkpt>
      <trkpt lat="46.18637" lon="7.14567">
        <ele>2151.09</ele>
        <time>2016-06-10T14:48:13Z</time>
      </trkpt>
      <trkpt lat="46.18647" lon="7.14567">
        <ele>2151.09</ele>
        <time>2016-06-10T14:48:22Z</time>
      </trkpt>
      <trkpt lat="46.18663" lon="7.14569">
        <ele>2153.49</ele>
        <time>2016-06-10T14:48:36Z</time>
      </trkpt>
      <trkpt lat="46.18664" lon="7.1457">
        <ele>2153.49</ele>
        <time>2016-06-10T14:48:37Z</time>
      </trkpt>
      <trkpt lat="46.18679" lon="7.14574">
        <ele>2155.41</ele>
        <time>2016-06-10T14:48:52Z</time>
      </trkpt>
      <trkpt lat="46.1868" lon="7.14575">
        <ele>2155.41</ele>
        <time>2016-06-10T14:48:53Z</time>
      </trkpt>
      <trkpt lat="46.18682" lon="7.14576">
        <ele>2155.41</ele>
        <time>2016-06-10T14:48:55Z</time>
      </trkpt>
      <trkpt lat="46.18696" lon="7.14575">
        <ele>2159.26</ele>
        <time>2016-06-10T14:49:11Z</time>
      </trkpt>
      <trkpt lat="46.18709" lon="7.14576">
        <ele>2160.7</ele>
        <time>2016-06-10T14:49:25Z</time>
      </trkpt>
      <trkpt lat="46.18719" lon="7.14573">
        <ele>2163.1</ele>
        <time>2016-06-10T14:49:39Z</time>
      </trkpt>
      <trkpt lat="46.18721" lon="7.14569">
        <ele>2165.51</ele>
        <time>2016-06-10T14:49:51Z</time>
      </trkpt>
      <trkpt lat="46.18731" lon="7.14565">
        <ele>2167.43</ele>
        <time>2016-06-10T14:50:05Z</time>
      </trkpt>
      <trkpt lat="46.18736" lon="7.14564">
        <ele>2168.39</ele>
        <time>2016-06-10T14:50:11Z</time>
      </trkpt>
      <trkpt lat="46.18749" lon="7.14561">
        <ele>2171.27</ele>
        <time>2016-06-10T14:50:28Z</time>
      </trkpt>
      <trkpt lat="46.18752" lon="7.14555">
        <ele>2173.68</ele>
        <time>2016-06-10T14:50:40Z</time>
      </trkpt>
      <trkpt lat="46.18757" lon="7.14551">
        <ele>2175.12</ele>
        <time>2016-06-10T14:50:46Z</time>
      </trkpt>
      <trkpt lat="46.1876" lon="7.14548">
        <ele>2175.12</ele>
        <time>2016-06-10T14:50:52Z</time>
      </trkpt>
      <trkpt lat="46.18764" lon="7.14545">
        <ele>2175.12</ele>
        <time>2016-06-10T14:50:59Z</time>
      </trkpt>
      <trkpt lat="46.18771" lon="7.14542">
        <ele>2175.12</ele>
        <time>2016-06-10T14:51:06Z</time>
      </trkpt>
      <trkpt lat="46.18779" lon="7.14545">
        <ele>2178</ele>
        <time>2016-06-10T14:51:18Z</time>
      </trkpt>
      <trkpt lat="46.18784" lon="7.14546">
        <ele>2178.48</ele>
        <time>2016-06-10T14:51:23Z</time>
      </trkpt>
      <trkpt lat="46.18799" lon="7.14545">
        <ele>2179.45</ele>
        <time>2016-06-10T14:51:39Z</time>
      </trkpt>
      <trkpt lat="46.18808" lon="7.14547">
        <ele>2182.33</ele>
        <time>2016-06-10T14:51:51Z</time>
      </trkpt>
      <trkpt lat="46.18815" lon="7.14551">
        <ele>2184.25</ele>
        <time>2016-06-10T14:52:01Z</time>
      </trkpt>
      <trkpt lat="46.1882" lon="7.1455">
        <ele>2184.25</ele>
        <time>2016-06-10T14:52:06Z</time>
      </trkpt>
      <trkpt lat="46.18832" lon="7.14556">
        <ele>2182.33</ele>
        <time>2016-06-10T14:52:17Z</time>
      </trkpt>
      <trkpt lat="46.18839" lon="7.14558">
        <ele>2181.85</ele>
        <time>2016-06-10T14:52:23Z</time>
      </trkpt>
      <trkpt lat="46.1886" lon="7.14566">
        <ele>2183.29</ele>
        <time>2016-06-10T14:52:42Z</time>
      </trkpt>
      <trkpt lat="46.18873" lon="7.14566">
        <ele>2184.25</ele>
        <time>2016-06-10T14:52:56Z</time>
      </trkpt>
      <trkpt lat="46.18885" lon="7.14572">
        <ele>2186.18</ele>
        <time>2016-06-10T14:53:10Z</time>
      </trkpt>
      <trkpt lat="46.18897" lon="7.14574">
        <ele>2187.62</ele>
        <time>2016-06-10T14:53:20Z</time>
      </trkpt>
      <trkpt lat="46.189" lon="7.14556">
        <ele>2187.14</ele>
        <time>2016-06-10T14:53:36Z</time>
      </trkpt>
      <trkpt lat="46.18901" lon="7.14552">
        <ele>2188.58</ele>
        <time>2016-06-10T14:53:45Z</time>
      </trkpt>
      <trkpt lat="46.18903" lon="7.14553">
        <ele>2188.58</ele>
        <time>2016-06-10T14:53:48Z</time>
      </trkpt>
      <trkpt lat="46.18906" lon="7.14553">
        <ele>2188.58</ele>
        <time>2016-06-10T14:53:51Z</time>
      </trkpt>
      <trkpt lat="46.18919" lon="7.14556">
        <ele>2188.58</ele>
        <time>2016-06-10T14:54:06Z</time>
      </trkpt>
      <trkpt lat="46.18928" lon="7.14554">
        <ele>2189.54</ele>
        <time>2016-06-10T14:54:19Z</time>
      </trkpt>
      <trkpt lat="46.18931" lon="7.14554">
        <ele>2189.54</ele>
        <time>2016-06-10T14:54:22Z</time>
      </trkpt>
      <trkpt lat="46.18934" lon="7.14556">
        <ele>2189.06</ele>
        <time>2016-06-10T14:54:25Z</time>
      </trkpt>
      <trkpt lat="46.18937" lon="7.14556">
        <ele>2189.54</ele>
        <time>2016-06-10T14:54:28Z</time>
      </trkpt>
      <trkpt lat="46.18948" lon="7.14556">
        <ele>2189.06</ele>
        <time>2016-06-10T14:54:39Z</time>
      </trkpt>
      <trkpt lat="46.18959" lon="7.14558">
        <ele>2189.06</ele>
        <time>2016-06-10T14:54:51Z</time>
      </trkpt>
      <trkpt lat="46.1896" lon="7.14559">
        <ele>2189.54</ele>
        <time>2016-06-10T14:54:53Z</time>
      </trkpt>
      <trkpt lat="46.18963" lon="7.14561">
        <ele>2190.5</ele>
        <time>2016-06-10T14:54:57Z</time>
      </trkpt>
      <trkpt lat="46.18968" lon="7.14562">
        <ele>2190.98</ele>
        <time>2016-06-10T14:55:01Z</time>
      </trkpt>
      <trkpt lat="46.18973" lon="7.14563">
        <ele>2190.98</ele>
        <time>2016-06-10T14:55:06Z</time>
      </trkpt>
      <trkpt lat="46.18982" lon="7.14576">
        <ele>2191.94</ele>
        <time>2016-06-10T14:55:18Z</time>
      </trkpt>
      <trkpt lat="46.18988" lon="7.14576">
        <ele>2190.98</ele>
        <time>2016-06-10T14:55:22Z</time>
      </trkpt>
      <trkpt lat="46.18997" lon="7.14579">
        <ele>2190.02</ele>
        <time>2016-06-10T14:55:28Z</time>
      </trkpt>
      <trkpt lat="46.18998" lon="7.1458">
        <ele>2189.54</ele>
        <time>2016-06-10T14:55:30Z</time>
      </trkpt>
      <trkpt lat="46.19003" lon="7.14583">
        <ele>2189.06</ele>
        <time>2016-06-10T14:55:34Z</time>
      </trkpt>
      <trkpt lat="46.19007" lon="7.14583">
        <ele>2189.06</ele>
        <time>2016-06-10T14:55:37Z</time>
      </trkpt>
      <trkpt lat="46.19017" lon="7.14576">
        <ele>2187.62</ele>
        <time>2016-06-10T14:55:47Z</time>
      </trkpt>
      <trkpt lat="46.19021" lon="7.14575">
        <ele>2187.14</ele>
        <time>2016-06-10T14:55:50Z</time>
      </trkpt>
      <trkpt lat="46.19023" lon="7.14575">
        <ele>2186.66</ele>
        <time>2016-06-10T14:55:52Z</time>
      </trkpt>
      <trkpt lat="46.1903" lon="7.14577">
        <ele>2187.62</ele>
        <time>2016-06-10T14:56:01Z</time>
      </trkpt>
      <trkpt lat="46.19033" lon="7.14575">
        <ele>2187.14</ele>
        <time>2016-06-10T14:56:04Z</time>
      </trkpt>
      <trkpt lat="46.19041" lon="7.14578">
        <ele>2187.14</ele>
        <time>2016-06-10T14:56:16Z</time>
      </trkpt>
      <trkpt lat="46.19046" lon="7.1458">
        <ele>2186.18</ele>
        <time>2016-06-10T14:56:29Z</time>
      </trkpt>
      <trkpt lat="46.19059" lon="7.14585">
        <ele>2184.25</ele>
        <time>2016-06-10T14:56:41Z</time>
      </trkpt>
      <trkpt lat="46.19079" lon="7.14589">
        <ele>2181.37</ele>
        <time>2016-06-10T14:56:57Z</time>
      </trkpt>
      <trkpt lat="46.19081" lon="7.14595">
        <ele>2180.89</ele>
        <time>2016-06-10T14:57:02Z</time>
      </trkpt>
      <trkpt lat="46.19085" lon="7.14599">
        <ele>2179.45</ele>
        <time>2016-06-10T14:57:10Z</time>
      </trkpt>
      <trkpt lat="46.19095" lon="7.14606">
        <ele>2178.48</ele>
        <time>2016-06-10T14:57:20Z</time>
      </trkpt>
      <trkpt lat="46.19097" lon="7.14607">
        <ele>2178.97</ele>
        <time>2016-06-10T14:57:23Z</time>
      </trkpt>
      <trkpt lat="46.19103" lon="7.14601">
        <ele>2178</ele>
        <time>2016-06-10T14:57:31Z</time>
      </trkpt>
      <trkpt lat="46.19108" lon="7.14599">
        <ele>2178.97</ele>
        <time>2016-06-10T14:57:36Z</time>
      </trkpt>
      <trkpt lat="46.19112" lon="7.146">
        <ele>2178.97</ele>
        <time>2016-06-10T14:57:40Z</time>
      </trkpt>
      <trkpt lat="46.19116" lon="7.14603">
        <ele>2179.45</ele>
        <time>2016-06-10T14:57:45Z</time>
      </trkpt>
      <trkpt lat="46.19129" lon="7.14598">
        <ele>2177.52</ele>
        <time>2016-06-10T14:58:01Z</time>
      </trkpt>
      <trkpt lat="46.19132" lon="7.14598">
        <ele>2177.04</ele>
        <time>2016-06-10T14:58:04Z</time>
      </trkpt>
      <trkpt lat="46.19139" lon="7.14593">
        <ele>2173.68</ele>
        <time>2016-06-10T14:58:11Z</time>
      </trkpt>
      <trkpt lat="46.19154" lon="7.1459">
        <ele>2171.27</ele>
        <time>2016-06-10T14:58:23Z</time>
      </trkpt>
      <trkpt lat="46.19167" lon="7.14587">
        <ele>2171.27</ele>
        <time>2016-06-10T14:58:35Z</time>
      </trkpt>
      <trkpt lat="46.19183" lon="7.1459">
        <ele>2169.83</ele>
        <time>2016-06-10T14:58:49Z</time>
      </trkpt>
      <trkpt lat="46.19189" lon="7.1459">
        <ele>2169.35</ele>
        <time>2016-06-10T14:58:54Z</time>
      </trkpt>
      <trkpt lat="46.19205" lon="7.14581">
        <ele>2166.95</ele>
        <time>2016-06-10T14:59:08Z</time>
      </trkpt>
      <trkpt lat="46.19206" lon="7.14579">
        <ele>2166.47</ele>
        <time>2016-06-10T14:59:10Z</time>
      </trkpt>
      <trkpt lat="46.1922" lon="7.14574">
        <ele>2164.06</ele>
        <time>2016-06-10T14:59:23Z</time>
      </trkpt>
      <trkpt lat="46.19221" lon="7.14574">
        <ele>2164.06</ele>
        <time>2016-06-10T14:59:24Z</time>
      </trkpt>
      <trkpt lat="46.19223" lon="7.14573">
        <ele>2164.06</ele>
        <time>2016-06-10T14:59:26Z</time>
      </trkpt>
      <trkpt lat="46.19241" lon="7.14575">
        <ele>2164.06</ele>
        <time>2016-06-10T14:59:44Z</time>
      </trkpt>
      <trkpt lat="46.19249" lon="7.14575">
        <ele>2164.55</ele>
        <time>2016-06-10T14:59:51Z</time>
      </trkpt>
      <trkpt lat="46.19258" lon="7.14573">
        <ele>2162.62</ele>
        <time>2016-06-10T14:59:59Z</time>
      </trkpt>
      <trkpt lat="46.19275" lon="7.14565">
        <ele>2160.22</ele>
        <time>2016-06-10T15:00:13Z</time>
      </trkpt>
      <trkpt lat="46.19282" lon="7.1456">
        <ele>2161.18</ele>
        <time>2016-06-10T15:00:20Z</time>
      </trkpt>
      <trkpt lat="46.19295" lon="7.14563">
        <ele>2160.7</ele>
        <time>2016-06-10T15:00:34Z</time>
      </trkpt>
      <trkpt lat="46.19313" lon="7.14558">
        <ele>2157.34</ele>
        <time>2016-06-10T15:00:49Z</time>
      </trkpt>
      <trkpt lat="46.1933" lon="7.14553">
        <ele>2156.86</ele>
        <time>2016-06-10T15:01:05Z</time>
      </trkpt>
      <trkpt lat="46.19344" lon="7.14556">
        <ele>2157.34</ele>
        <time>2016-06-10T15:01:19Z</time>
      </trkpt>
      <trkpt lat="46.19356" lon="7.14556">
        <ele>2156.37</ele>
        <time>2016-06-10T15:01:29Z</time>
      </trkpt>
      <trkpt lat="46.1937" lon="7.14553">
        <ele>2153.01</ele>
        <time>2016-06-10T15:01:42Z</time>
      </trkpt>
      <trkpt lat="46.19386" lon="7.14547">
        <ele>2153.49</ele>
        <time>2016-06-10T15:01:56Z</time>
      </trkpt>
      <trkpt lat="46.19388" lon="7.14547">
        <ele>2153.49</ele>
        <time>2016-06-10T15:01:58Z</time>
      </trkpt>
      <trkpt lat="46.194" lon="7.14545">
        <ele>2156.86</ele>
        <time>2016-06-10T15:02:13Z</time>
      </trkpt>
      <trkpt lat="46.1941" lon="7.14545">
        <ele>2159.74</ele>
        <time>2016-06-10T15:02:27Z</time>
      </trkpt>
      <trkpt lat="46.19418" lon="7.14547">
        <ele>2162.14</ele>
        <time>2016-06-10T15:02:43Z</time>
      </trkpt>
      <trkpt lat="46.19425" lon="7.14547">
        <ele>2163.58</ele>
        <time>2016-06-10T15:02:59Z</time>
      </trkpt>
      <trkpt lat="46.19431" lon="7.14547">
        <ele>2166.95</ele>
        <time>2016-06-10T15:03:16Z</time>
      </trkpt>
      <trkpt lat="46.19442" lon="7.14548">
        <ele>2171.76</ele>
        <time>2016-06-10T15:03:36Z</time>
      </trkpt>
      <trkpt lat="46.19449" lon="7.14556">
        <ele>2173.2</ele>
        <time>2016-06-10T15:03:52Z</time>
      </trkpt>
      <trkpt lat="46.19451" lon="7.1456">
        <ele>2174.16</ele>
        <time>2016-06-10T15:04:07Z</time>
      </trkpt>
      <trkpt lat="46.19452" lon="7.14561">
        <ele>2174.16</ele>
        <time>2016-06-10T15:04:10Z</time>
      </trkpt>
      <trkpt lat="46.19451" lon="7.14557">
        <ele>2173.68</ele>
        <time>2016-06-10T15:04:17Z</time>
      </trkpt>
      <trkpt lat="46.19439" lon="7.14542">
        <ele>2170.79</ele>
        <time>2016-06-10T15:04:34Z</time>
      </trkpt>
      <trkpt lat="46.19423" lon="7.14529">
        <ele>2166.47</ele>
        <time>2016-06-10T15:04:52Z</time>
      </trkpt>
      <trkpt lat="46.19416" lon="7.14524">
        <ele>2164.55</ele>
        <time>2016-06-10T15:05:00Z</time>
      </trkpt>
      <trkpt lat="46.19405" lon="7.14519">
        <ele>2158.78</ele>
        <time>2016-06-10T15:05:14Z</time>
      </trkpt>
      <trkpt lat="46.19397" lon="7.14509">
        <ele>2153.97</ele>
        <time>2016-06-10T15:05:26Z</time>
      </trkpt>
      <trkpt lat="46.1939" lon="7.14503">
        <ele>2152.53</ele>
        <time>2016-06-10T15:05:37Z</time>
      </trkpt>
      <trkpt lat="46.19383" lon="7.145">
        <ele>2150.13</ele>
        <time>2016-06-10T15:05:45Z</time>
      </trkpt>
      <trkpt lat="46.19375" lon="7.14497">
        <ele>2147.24</ele>
        <time>2016-06-10T15:05:55Z</time>
      </trkpt>
      <trkpt lat="46.19372" lon="7.14483">
        <ele>2145.32</ele>
        <time>2016-06-10T15:06:09Z</time>
      </trkpt>
      <trkpt lat="46.19363" lon="7.14477">
        <ele>2143.88</ele>
        <time>2016-06-10T15:06:24Z</time>
      </trkpt>
      <trkpt lat="46.19358" lon="7.14466">
        <ele>2141.95</ele>
        <time>2016-06-10T15:06:37Z</time>
      </trkpt>
      <trkpt lat="46.19358" lon="7.14458">
        <ele>2139.07</ele>
        <time>2016-06-10T15:06:48Z</time>
      </trkpt>
      <trkpt lat="46.19363" lon="7.14451">
        <ele>2138.59</ele>
        <time>2016-06-10T15:07:02Z</time>
      </trkpt>
      <trkpt lat="46.19363" lon="7.1445">
        <ele>2138.11</ele>
        <time>2016-06-10T15:07:04Z</time>
      </trkpt>
      <trkpt lat="46.19372" lon="7.14434">
        <ele>2140.51</ele>
        <time>2016-06-10T15:07:18Z</time>
      </trkpt>
      <trkpt lat="46.19376" lon="7.14426">
        <ele>2140.51</ele>
        <time>2016-06-10T15:07:25Z</time>
      </trkpt>
      <trkpt lat="46.19378" lon="7.14419">
        <ele>2139.07</ele>
        <time>2016-06-10T15:07:30Z</time>
      </trkpt>
      <trkpt lat="46.19387" lon="7.14405">
        <ele>2136.19</ele>
        <time>2016-06-10T15:07:41Z</time>
      </trkpt>
      <trkpt lat="46.19396" lon="7.14392">
        <ele>2130.9</ele>
        <time>2016-06-10T15:07:54Z</time>
      </trkpt>
      <trkpt lat="46.19398" lon="7.14381">
        <ele>2130.9</ele>
        <time>2016-06-10T15:08:04Z</time>
      </trkpt>
      <trkpt lat="46.19404" lon="7.14364">
        <ele>2129.46</ele>
        <time>2016-06-10T15:08:17Z</time>
      </trkpt>
      <trkpt lat="46.19407" lon="7.14354">
        <ele>2125.61</ele>
        <time>2016-06-10T15:08:30Z</time>
      </trkpt>
      <trkpt lat="46.19411" lon="7.14345">
        <ele>2125.13</ele>
        <time>2016-06-10T15:08:45Z</time>
      </trkpt>
      <trkpt lat="46.19411" lon="7.14339">
        <ele>2122.25</ele>
        <time>2016-06-10T15:08:56Z</time>
      </trkpt>
      <trkpt lat="46.19413" lon="7.14328">
        <ele>2118.88</ele>
        <time>2016-06-10T15:09:09Z</time>
      </trkpt>
      <trkpt lat="46.19419" lon="7.14312">
        <ele>2112.63</ele>
        <time>2016-06-10T15:09:21Z</time>
      </trkpt>
      <trkpt lat="46.1942" lon="7.1431">
        <ele>2112.15</ele>
        <time>2016-06-10T15:09:22Z</time>
      </trkpt>
      <trkpt lat="46.19426" lon="7.14298">
        <ele>2109.27</ele>
        <time>2016-06-10T15:09:30Z</time>
      </trkpt>
      <trkpt lat="46.19434" lon="7.14283">
        <ele>2103.98</ele>
        <time>2016-06-10T15:09:43Z</time>
      </trkpt>
      <trkpt lat="46.19435" lon="7.14279">
        <ele>2102.06</ele>
        <time>2016-06-10T15:09:47Z</time>
      </trkpt>
      <trkpt lat="46.19437" lon="7.14273">
        <ele>2101.1</ele>
        <time>2016-06-10T15:09:51Z</time>
      </trkpt>
      <trkpt lat="46.19438" lon="7.14266">
        <ele>2100.14</ele>
        <time>2016-06-10T15:09:56Z</time>
      </trkpt>
      <trkpt lat="46.19442" lon="7.14249">
        <ele>2097.73</ele>
        <time>2016-06-10T15:10:10Z</time>
      </trkpt>
      <trkpt lat="46.19444" lon="7.14246">
        <ele>2096.77</ele>
        <time>2016-06-10T15:10:13Z</time>
      </trkpt>
      <trkpt lat="46.19448" lon="7.14233">
        <ele>2094.37</ele>
        <time>2016-06-10T15:10:25Z</time>
      </trkpt>
      <trkpt lat="46.19452" lon="7.14226">
        <ele>2092.93</ele>
        <time>2016-06-10T15:10:30Z</time>
      </trkpt>
      <trkpt lat="46.19457" lon="7.14202">
        <ele>2094.85</ele>
        <time>2016-06-10T15:10:44Z</time>
      </trkpt>
      <trkpt lat="46.19468" lon="7.14204">
        <ele>2087.64</ele>
        <time>2016-06-10T15:10:53Z</time>
      </trkpt>
      <trkpt lat="46.19473" lon="7.14201">
        <ele>2083.31</ele>
        <time>2016-06-10T15:10:59Z</time>
      </trkpt>
      <trkpt lat="46.19479" lon="7.14181">
        <ele>2076.59</ele>
        <time>2016-06-10T15:11:14Z</time>
      </trkpt>
      <trkpt lat="46.1948" lon="7.1418">
        <ele>2076.59</ele>
        <time>2016-06-10T15:11:15Z</time>
      </trkpt>
      <trkpt lat="46.19482" lon="7.1417">
        <ele>2075.14</ele>
        <time>2016-06-10T15:11:22Z</time>
      </trkpt>
      <trkpt lat="46.19484" lon="7.14169">
        <ele>2074.66</ele>
        <time>2016-06-10T15:11:24Z</time>
      </trkpt>
      <trkpt lat="46.1949" lon="7.14148">
        <ele>2072.26</ele>
        <time>2016-06-10T15:11:38Z</time>
      </trkpt>
      <trkpt lat="46.19489" lon="7.14134">
        <ele>2070.34</ele>
        <time>2016-06-10T15:11:51Z</time>
      </trkpt>
      <trkpt lat="46.19487" lon="7.14106">
        <ele>2059.28</ele>
        <time>2016-06-10T15:12:08Z</time>
      </trkpt>
      <trkpt lat="46.19486" lon="7.14102">
        <ele>2057.36</ele>
        <time>2016-06-10T15:12:10Z</time>
      </trkpt>
      <trkpt lat="46.19481" lon="7.14094">
        <ele>2052.07</ele>
        <time>2016-06-10T15:12:15Z</time>
      </trkpt>
      <trkpt lat="46.19476" lon="7.14076">
        <ele>2044.86</ele>
        <time>2016-06-10T15:12:27Z</time>
      </trkpt>
      <trkpt lat="46.19472" lon="7.14076">
        <ele>2041.98</ele>
        <time>2016-06-10T15:12:39Z</time>
      </trkpt>
      <trkpt lat="46.19473" lon="7.14079">
        <ele>2041.5</ele>
        <time>2016-06-10T15:13:00Z</time>
      </trkpt>
      <trkpt lat="46.19473" lon="7.14079">
        <ele>2041.02</ele>
        <time>2016-06-10T15:13:23Z</time>
      </trkpt>
      <trkpt lat="46.19473" lon="7.14067">
        <ele>2041.02</ele>
        <time>2016-06-10T15:13:36Z</time>
      </trkpt>
      <trkpt lat="46.19477" lon="7.14055">
        <ele>2039.09</ele>
        <time>2016-06-10T15:13:48Z</time>
      </trkpt>
      <trkpt lat="46.1948" lon="7.14045">
        <ele>2037.65</ele>
        <time>2016-06-10T15:14:12Z</time>
      </trkpt>
      <trkpt lat="46.19491" lon="7.1403">
        <ele>2039.09</ele>
        <time>2016-06-10T15:14:28Z</time>
      </trkpt>
      <trkpt lat="46.19499" lon="7.14026">
        <ele>2036.21</ele>
        <time>2016-06-10T15:14:40Z</time>
      </trkpt>
      <trkpt lat="46.19505" lon="7.14027">
        <ele>2033.81</ele>
        <time>2016-06-10T15:14:51Z</time>
      </trkpt>
      <trkpt lat="46.19514" lon="7.14032">
        <ele>2030.44</ele>
        <time>2016-06-10T15:14:59Z</time>
      </trkpt>
      <trkpt lat="46.19525" lon="7.14036">
        <ele>2022.75</ele>
        <time>2016-06-10T15:15:07Z</time>
      </trkpt>
      <trkpt lat="46.19535" lon="7.14014">
        <ele>2023.23</ele>
        <time>2016-06-10T15:15:20Z</time>
      </trkpt>
      <trkpt lat="46.19541" lon="7.1399">
        <ele>2021.79</ele>
        <time>2016-06-10T15:15:35Z</time>
      </trkpt>
      <trkpt lat="46.19541" lon="7.13987">
        <ele>2021.79</ele>
        <time>2016-06-10T15:15:37Z</time>
      </trkpt>
      <trkpt lat="46.19547" lon="7.13973">
        <ele>2022.75</ele>
        <time>2016-06-10T15:15:50Z</time>
      </trkpt>
      <trkpt lat="46.1955" lon="7.1397">
        <ele>2020.35</ele>
        <time>2016-06-10T15:16:03Z</time>
      </trkpt>
      <trkpt lat="46.19551" lon="7.13968">
        <ele>2018.43</ele>
        <time>2016-06-10T15:16:36Z</time>
      </trkpt>
      <trkpt lat="46.19552" lon="7.13965">
        <ele>2017.46</ele>
        <time>2016-06-10T15:16:57Z</time>
      </trkpt>
      <trkpt lat="46.19561" lon="7.1395">
        <ele>2015.06</ele>
        <time>2016-06-10T15:17:11Z</time>
      </trkpt>
      <trkpt lat="46.19565" lon="7.13942">
        <ele>2013.62</ele>
        <time>2016-06-10T15:17:17Z</time>
      </trkpt>
      <trkpt lat="46.19567" lon="7.13935">
        <ele>2012.66</ele>
        <time>2016-06-10T15:17:26Z</time>
      </trkpt>
      <trkpt lat="46.19572" lon="7.13924">
        <ele>2011.22</ele>
        <time>2016-06-10T15:17:35Z</time>
      </trkpt>
      <trkpt lat="46.1958" lon="7.13895">
        <ele>2009.77</ele>
        <time>2016-06-10T15:17:52Z</time>
      </trkpt>
      <trkpt lat="46.19587" lon="7.13875">
        <ele>2012.18</ele>
        <time>2016-06-10T15:18:06Z</time>
      </trkpt>
      <trkpt lat="46.19586" lon="7.13873">
        <ele>2011.7</ele>
        <time>2016-06-10T15:18:28Z</time>
      </trkpt>
      <trkpt lat="46.19587" lon="7.13871">
        <ele>2010.73</ele>
        <time>2016-06-10T15:18:46Z</time>
      </trkpt>
      <trkpt lat="46.19593" lon="7.13857">
        <ele>2011.7</ele>
        <time>2016-06-10T15:19:00Z</time>
      </trkpt>
      <trkpt lat="46.19605" lon="7.13837">
        <ele>2011.22</ele>
        <time>2016-06-10T15:19:12Z</time>
      </trkpt>
      <trkpt lat="46.19612" lon="7.1381">
        <ele>2006.89</ele>
        <time>2016-06-10T15:19:24Z</time>
      </trkpt>
      <trkpt lat="46.19612" lon="7.13806">
        <ele>2005.45</ele>
        <time>2016-06-10T15:19:27Z</time>
      </trkpt>
      <trkpt lat="46.19622" lon="7.13777">
        <ele>2001.12</ele>
        <time>2016-06-10T15:19:43Z</time>
      </trkpt>
      <trkpt lat="46.19633" lon="7.13745">
        <ele>1998.24</ele>
        <time>2016-06-10T15:20:01Z</time>
      </trkpt>
      <trkpt lat="46.19643" lon="7.13721">
        <ele>1994.87</ele>
        <time>2016-06-10T15:20:17Z</time>
      </trkpt>
      <trkpt lat="46.19643" lon="7.1372">
        <ele>1994.87</ele>
        <time>2016-06-10T15:20:33Z</time>
      </trkpt>
      <trkpt lat="46.19645" lon="7.13718">
        <ele>1994.39</ele>
        <time>2016-06-10T15:20:35Z</time>
      </trkpt>
      <trkpt lat="46.19651" lon="7.13714">
        <ele>1994.39</ele>
        <time>2016-06-10T15:20:41Z</time>
      </trkpt>
      <trkpt lat="46.19657" lon="7.13717">
        <ele>1993.43</ele>
        <time>2016-06-10T15:20:47Z</time>
      </trkpt>
      <trkpt lat="46.19662" lon="7.13747">
        <ele>1991.99</ele>
        <time>2016-06-10T15:21:05Z</time>
      </trkpt>
      <trkpt lat="46.19664" lon="7.13777">
        <ele>1991.51</ele>
        <time>2016-06-10T15:21:21Z</time>
      </trkpt>
      <trkpt lat="46.1967" lon="7.13803">
        <ele>1991.51</ele>
        <time>2016-06-10T15:21:36Z</time>
      </trkpt>
      <trkpt lat="46.19673" lon="7.1383">
        <ele>1991.03</ele>
        <time>2016-06-10T15:21:51Z</time>
      </trkpt>
      <trkpt lat="46.19674" lon="7.13833">
        <ele>1991.03</ele>
        <time>2016-06-10T15:21:53Z</time>
      </trkpt>
      <trkpt lat="46.19672" lon="7.13846">
        <ele>1991.03</ele>
        <time>2016-06-10T15:22:01Z</time>
      </trkpt>
      <trkpt lat="46.19671" lon="7.1386">
        <ele>1991.99</ele>
        <time>2016-06-10T15:22:11Z</time>
      </trkpt>
      <trkpt lat="46.19671" lon="7.13866">
        <ele>1991.99</ele>
        <time>2016-06-10T15:22:15Z</time>
      </trkpt>
      <trkpt lat="46.19674" lon="7.13889">
        <ele>1990.07</ele>
        <time>2016-06-10T15:22:31Z</time>
      </trkpt>
      <trkpt lat="46.19681" lon="7.13912">
        <ele>1988.62</ele>
        <time>2016-06-10T15:22:47Z</time>
      </trkpt>
      <trkpt lat="46.19683" lon="7.13918">
        <ele>1988.14</ele>
        <time>2016-06-10T15:22:50Z</time>
      </trkpt>
      <trkpt lat="46.19691" lon="7.13935">
        <ele>1984.78</ele>
        <time>2016-06-10T15:23:02Z</time>
      </trkpt>
      <trkpt lat="46.19695" lon="7.13945">
        <ele>1983.34</ele>
        <time>2016-06-10T15:23:08Z</time>
      </trkpt>
      <trkpt lat="46.19697" lon="7.13953">
        <ele>1982.38</ele>
        <time>2016-06-10T15:23:13Z</time>
      </trkpt>
      <trkpt lat="46.19699" lon="7.13959">
        <ele>1981.9</ele>
        <time>2016-06-10T15:23:17Z</time>
      </trkpt>
      <trkpt lat="46.19704" lon="7.13982">
        <ele>1980.45</ele>
        <time>2016-06-10T15:23:31Z</time>
      </trkpt>
      <trkpt lat="46.19708" lon="7.13989">
        <ele>1980.45</ele>
        <time>2016-06-10T15:23:36Z</time>
      </trkpt>
      <trkpt lat="46.19712" lon="7.14001">
        <ele>1980.93</ele>
        <time>2016-06-10T15:23:43Z</time>
      </trkpt>
      <trkpt lat="46.19717" lon="7.14012">
        <ele>1980.45</ele>
        <time>2016-06-10T15:23:50Z</time>
      </trkpt>
      <trkpt lat="46.19724" lon="7.14026">
        <ele>1981.41</ele>
        <time>2016-06-10T15:24:01Z</time>
      </trkpt>
      <trkpt lat="46.19727" lon="7.14049">
        <ele>1980.45</ele>
        <time>2016-06-10T15:24:15Z</time>
      </trkpt>
      <trkpt lat="46.19729" lon="7.14059">
        <ele>1979.97</ele>
        <time>2016-06-10T15:24:21Z</time>
      </trkpt>
      <trkpt lat="46.19731" lon="7.1407">
        <ele>1979.01</ele>
        <time>2016-06-10T15:24:27Z</time>
      </trkpt>
      <trkpt lat="46.19733" lon="7.14084">
        <ele>1978.05</ele>
        <time>2016-06-10T15:24:33Z</time>
      </trkpt>
      <trkpt lat="46.19734" lon="7.14099">
        <ele>1977.57</ele>
        <time>2016-06-10T15:24:40Z</time>
      </trkpt>
      <trkpt lat="46.19738" lon="7.14111">
        <ele>1977.09</ele>
        <time>2016-06-10T15:24:48Z</time>
      </trkpt>
      <trkpt lat="46.19742" lon="7.1413">
        <ele>1977.09</ele>
        <time>2016-06-10T15:25:00Z</time>
      </trkpt>
      <trkpt lat="46.19746" lon="7.14144">
        <ele>1977.57</ele>
        <time>2016-06-10T15:25:10Z</time>
      </trkpt>
      <trkpt lat="46.19747" lon="7.1415">
        <ele>1978.53</ele>
        <time>2016-06-10T15:25:13Z</time>
      </trkpt>
      <trkpt lat="46.19748" lon="7.14166">
        <ele>1979.01</ele>
        <time>2016-06-10T15:25:20Z</time>
      </trkpt>
      <trkpt lat="46.19753" lon="7.14179">
        <ele>1980.45</ele>
        <time>2016-06-10T15:25:27Z</time>
      </trkpt>
      <trkpt lat="46.19755" lon="7.14186">
        <ele>1980.45</ele>
        <time>2016-06-10T15:25:30Z</time>
      </trkpt>
      <trkpt lat="46.19766" lon="7.14215">
        <ele>1976.13</ele>
        <time>2016-06-10T15:25:42Z</time>
      </trkpt>
      <trkpt lat="46.19766" lon="7.14219">
        <ele>1975.17</ele>
        <time>2016-06-10T15:25:44Z</time>
      </trkpt>
      <trkpt lat="46.1978" lon="7.14233">
        <ele>1973.24</ele>
        <time>2016-06-10T15:25:56Z</time>
      </trkpt>
      <trkpt lat="46.1978" lon="7.14235">
        <ele>1973.24</ele>
        <time>2016-06-10T15:25:57Z</time>
      </trkpt>
      <trkpt lat="46.19791" lon="7.14256">
        <ele>1969.88</ele>
        <time>2016-06-10T15:26:11Z</time>
      </trkpt>
      <trkpt lat="46.19799" lon="7.14266">
        <ele>1970.84</ele>
        <time>2016-06-10T15:26:20Z</time>
      </trkpt>
      <trkpt lat="46.198" lon="7.14273">
        <ele>1969.88</ele>
        <time>2016-06-10T15:26:23Z</time>
      </trkpt>
      <trkpt lat="46.19805" lon="7.14285">
        <ele>1970.36</ele>
        <time>2016-06-10T15:26:30Z</time>
      </trkpt>
      <trkpt lat="46.19829" lon="7.143">
        <ele>1956.9</ele>
        <time>2016-06-10T15:26:44Z</time>
      </trkpt>
      <trkpt lat="46.19834" lon="7.14307">
        <ele>1953.06</ele>
        <time>2016-06-10T15:26:48Z</time>
      </trkpt>
      <trkpt lat="46.19837" lon="7.14315">
        <ele>1949.21</ele>
        <time>2016-06-10T15:26:53Z</time>
      </trkpt>
      <trkpt lat="46.19849" lon="7.14331">
        <ele>1940.56</ele>
        <time>2016-06-10T15:27:04Z</time>
      </trkpt>
      <trkpt lat="46.19861" lon="7.14328">
        <ele>1936.71</ele>
        <time>2016-06-10T15:27:11Z</time>
      </trkpt>
      <trkpt lat="46.19877" lon="7.14333">
        <ele>1928.54</ele>
        <time>2016-06-10T15:27:24Z</time>
      </trkpt>
      <trkpt lat="46.19885" lon="7.14335">
        <ele>1925.18</ele>
        <time>2016-06-10T15:27:30Z</time>
      </trkpt>
      <trkpt lat="46.19894" lon="7.14339">
        <ele>1921.33</ele>
        <time>2016-06-10T15:27:37Z</time>
      </trkpt>
      <trkpt lat="46.19895" lon="7.14341">
        <ele>1920.37</ele>
        <time>2016-06-10T15:27:39Z</time>
      </trkpt>
      <trkpt lat="46.19895" lon="7.14343">
        <ele>1920.37</ele>
        <time>2016-06-10T15:27:41Z</time>
      </trkpt>
      <trkpt lat="46.19894" lon="7.14341">
        <ele>1919.41</ele>
        <time>2016-06-10T15:27:44Z</time>
      </trkpt>
      <trkpt lat="46.19893" lon="7.14336">
        <ele>1916.53</ele>
        <time>2016-06-10T15:27:51Z</time>
      </trkpt>
      <trkpt lat="46.19887" lon="7.14339">
        <ele>1917.01</ele>
        <time>2016-06-10T15:27:57Z</time>
      </trkpt>
      <trkpt lat="46.19882" lon="7.14347">
        <ele>1918.93</ele>
        <time>2016-06-10T15:28:05Z</time>
      </trkpt>
      <trkpt lat="46.19871" lon="7.14353">
        <ele>1922.29</ele>
        <time>2016-06-10T15:28:18Z</time>
      </trkpt>
      <trkpt lat="46.1987" lon="7.14353">
        <ele>1922.29</ele>
        <time>2016-06-10T15:28:19Z</time>
      </trkpt>
      <trkpt lat="46.19869" lon="7.14357">
        <ele>1922.29</ele>
        <time>2016-06-10T15:28:21Z</time>
      </trkpt>
      <trkpt lat="46.19873" lon="7.14369">
        <ele>1915.56</ele>
        <time>2016-06-10T15:28:33Z</time>
      </trkpt>
      <trkpt lat="46.19882" lon="7.14381">
        <ele>1912.2</ele>
        <time>2016-06-10T15:28:44Z</time>
      </trkpt>
      <trkpt lat="46.19885" lon="7.14392">
        <ele>1906.43</ele>
        <time>2016-06-10T15:28:56Z</time>
      </trkpt>
      <trkpt lat="46.19884" lon="7.14394">
        <ele>1905.47</ele>
        <time>2016-06-10T15:28:58Z</time>
      </trkpt>
      <trkpt lat="46.19882" lon="7.14404">
        <ele>1904.51</ele>
        <time>2016-06-10T15:29:06Z</time>
      </trkpt>
      <trkpt lat="46.19878" lon="7.14417">
        <ele>1903.55</ele>
        <time>2016-06-10T15:29:14Z</time>
      </trkpt>
      <trkpt lat="46.19881" lon="7.14428">
        <ele>1900.18</ele>
        <time>2016-06-10T15:29:18Z</time>
      </trkpt>
      <trkpt lat="46.19874" lon="7.1443">
        <ele>1894.42</ele>
        <time>2016-06-10T15:29:32Z</time>
      </trkpt>
      <trkpt lat="46.19866" lon="7.14418">
        <ele>1886.24</ele>
        <time>2016-06-10T15:29:46Z</time>
      </trkpt>
      <trkpt lat="46.19864" lon="7.14417">
        <ele>1885.76</ele>
        <time>2016-06-10T15:29:48Z</time>
      </trkpt>
      <trkpt lat="46.19862" lon="7.14414">
        <ele>1884.8</ele>
        <time>2016-06-10T15:29:50Z</time>
      </trkpt>
      <trkpt lat="46.19854" lon="7.14404">
        <ele>1885.28</ele>
        <time>2016-06-10T15:29:59Z</time>
      </trkpt>
      <trkpt lat="46.19843" lon="7.14394">
        <ele>1887.69</ele>
        <time>2016-06-10T15:30:13Z</time>
      </trkpt>
      <trkpt lat="46.19829" lon="7.14388">
        <ele>1888.65</ele>
        <time>2016-06-10T15:30:27Z</time>
      </trkpt>
      <trkpt lat="46.19813" lon="7.14378">
        <ele>1889.61</ele>
        <time>2016-06-10T15:30:41Z</time>
      </trkpt>
      <trkpt lat="46.19802" lon="7.14377">
        <ele>1890.09</ele>
        <time>2016-06-10T15:30:49Z</time>
      </trkpt>
      <trkpt lat="46.19796" lon="7.14382">
        <ele>1890.09</ele>
        <time>2016-06-10T15:30:54Z</time>
      </trkpt>
      <trkpt lat="46.19806" lon="7.14397">
        <ele>1890.09</ele>
        <time>2016-06-10T15:31:03Z</time>
      </trkpt>
      <trkpt lat="46.1981" lon="7.14401">
        <ele>1890.09</ele>
        <time>2016-06-10T15:31:07Z</time>
      </trkpt>
      <trkpt lat="46.1982" lon="7.14414">
        <ele>1889.61</ele>
        <time>2016-06-10T15:31:18Z</time>
      </trkpt>
      <trkpt lat="46.19828" lon="7.1442">
        <ele>1889.61</ele>
        <time>2016-06-10T15:31:23Z</time>
      </trkpt>
      <trkpt lat="46.19832" lon="7.14426">
        <ele>1889.61</ele>
        <time>2016-06-10T15:31:27Z</time>
      </trkpt>
      <trkpt lat="46.19832" lon="7.14439">
        <ele>1889.13</ele>
        <time>2016-06-10T15:31:40Z</time>
      </trkpt>
      <trkpt lat="46.19832" lon="7.14443">
        <ele>1889.13</ele>
        <time>2016-06-10T15:31:43Z</time>
      </trkpt>
      <trkpt lat="46.19836" lon="7.1445">
        <ele>1889.13</ele>
        <time>2016-06-10T15:31:47Z</time>
      </trkpt>
      <trkpt lat="46.19837" lon="7.14457">
        <ele>1888.65</ele>
        <time>2016-06-10T15:31:51Z</time>
      </trkpt>
      <trkpt lat="46.1985" lon="7.1448">
        <ele>1887.21</ele>
        <time>2016-06-10T15:32:03Z</time>
      </trkpt>
      <trkpt lat="46.19856" lon="7.14493">
        <ele>1885.76</ele>
        <time>2016-06-10T15:32:10Z</time>
      </trkpt>
      <trkpt lat="46.19858" lon="7.14499">
        <ele>1885.76</ele>
        <time>2016-06-10T15:32:13Z</time>
      </trkpt>
      <trkpt lat="46.19863" lon="7.14509">
        <ele>1884.32</ele>
        <time>2016-06-10T15:32:18Z</time>
      </trkpt>
      <trkpt lat="46.19877" lon="7.14525">
        <ele>1883.84</ele>
        <time>2016-06-10T15:32:28Z</time>
      </trkpt>
      <trkpt lat="46.19883" lon="7.14534">
        <ele>1883.36</ele>
        <time>2016-06-10T15:32:33Z</time>
      </trkpt>
      <trkpt lat="46.19883" lon="7.1454">
        <ele>1882.4</ele>
        <time>2016-06-10T15:32:38Z</time>
      </trkpt>
      <trkpt lat="46.19896" lon="7.14554">
        <ele>1881.92</ele>
        <time>2016-06-10T15:32:47Z</time>
      </trkpt>
      <trkpt lat="46.19909" lon="7.14566">
        <ele>1881.44</ele>
        <time>2016-06-10T15:32:55Z</time>
      </trkpt>
      <trkpt lat="46.1992" lon="7.14574">
        <ele>1881.44</ele>
        <time>2016-06-10T15:33:01Z</time>
      </trkpt>
      <trkpt lat="46.19936" lon="7.14579">
        <ele>1879.51</ele>
        <time>2016-06-10T15:33:11Z</time>
      </trkpt>
      <trkpt lat="46.19953" lon="7.14579">
        <ele>1878.55</ele>
        <time>2016-06-10T15:33:21Z</time>
      </trkpt>
      <trkpt lat="46.19961" lon="7.14579">
        <ele>1869.9</ele>
        <time>2016-06-10T15:33:29Z</time>
      </trkpt>
      <trkpt lat="46.19974" lon="7.14572">
        <ele>1869.42</ele>
        <time>2016-06-10T15:33:38Z</time>
      </trkpt>
      <trkpt lat="46.20005" lon="7.14564">
        <ele>1867.98</ele>
        <time>2016-06-10T15:33:53Z</time>
      </trkpt>
      <trkpt lat="46.20009" lon="7.14564">
        <ele>1867.98</ele>
        <time>2016-06-10T15:33:59Z</time>
      </trkpt>
      <trkpt lat="46.20013" lon="7.14565">
        <ele>1867.98</ele>
        <time>2016-06-10T15:34:02Z</time>
      </trkpt>
      <trkpt lat="46.20036" lon="7.14552">
        <ele>1868.46</ele>
        <time>2016-06-10T15:34:14Z</time>
      </trkpt>
      <trkpt lat="46.20038" lon="7.14552">
        <ele>1868.46</ele>
        <time>2016-06-10T15:34:16Z</time>
      </trkpt>
      <trkpt lat="46.20052" lon="7.14559">
        <ele>1868.94</ele>
        <time>2016-06-10T15:34:27Z</time>
      </trkpt>
      <trkpt lat="46.20057" lon="7.14561">
        <ele>1856.92</ele>
        <time>2016-06-10T15:34:41Z</time>
      </trkpt>
      <trkpt lat="46.20052" lon="7.14563">
        <ele>1844.43</ele>
        <time>2016-06-10T15:34:51Z</time>
      </trkpt>
      <trkpt lat="46.2005" lon="7.14565">
        <ele>1838.18</ele>
        <time>2016-06-10T15:35:02Z</time>
      </trkpt>
      <trkpt lat="46.20061" lon="7.14573">
        <ele>1836.26</ele>
        <time>2016-06-10T15:35:15Z</time>
      </trkpt>
      <trkpt lat="46.20079" lon="7.14589">
        <ele>1832.41</ele>
        <time>2016-06-10T15:35:31Z</time>
      </trkpt>
      <trkpt lat="46.20097" lon="7.14599">
        <ele>1822.8</ele>
        <time>2016-06-10T15:35:45Z</time>
      </trkpt>
      <trkpt lat="46.20097" lon="7.146">
        <ele>1821.84</ele>
        <time>2016-06-10T15:35:46Z</time>
      </trkpt>
      <trkpt lat="46.20094" lon="7.14604">
        <ele>1819.43</ele>
        <time>2016-06-10T15:35:52Z</time>
      </trkpt>
      <trkpt lat="46.20089" lon="7.14604">
        <ele>1818.47</ele>
        <time>2016-06-10T15:36:00Z</time>
      </trkpt>
      <trkpt lat="46.20082" lon="7.14605">
        <ele>1815.59</ele>
        <time>2016-06-10T15:36:05Z</time>
      </trkpt>
      <trkpt lat="46.20076" lon="7.14609">
        <ele>1805.01</ele>
        <time>2016-06-10T15:36:20Z</time>
      </trkpt>
      <trkpt lat="46.20064" lon="7.14606">
        <ele>1798.28</ele>
        <time>2016-06-10T15:36:36Z</time>
      </trkpt>
      <trkpt lat="46.20063" lon="7.14606">
        <ele>1798.28</ele>
        <time>2016-06-10T15:36:37Z</time>
      </trkpt>
      <trkpt lat="46.20048" lon="7.14616">
        <ele>1803.09</ele>
        <time>2016-06-10T15:36:52Z</time>
      </trkpt>
      <trkpt lat="46.20047" lon="7.14617">
        <ele>1803.09</ele>
        <time>2016-06-10T15:36:53Z</time>
      </trkpt>
      <trkpt lat="46.20039" lon="7.1463">
        <ele>1804.53</ele>
        <time>2016-06-10T15:37:01Z</time>
      </trkpt>
      <trkpt lat="46.20035" lon="7.14633">
        <ele>1804.53</ele>
        <time>2016-06-10T15:37:04Z</time>
      </trkpt>
      <trkpt lat="46.20027" lon="7.14652">
        <ele>1803.57</ele>
        <time>2016-06-10T15:37:16Z</time>
      </trkpt>
      <trkpt lat="46.20023" lon="7.1466">
        <ele>1803.57</ele>
        <time>2016-06-10T15:37:22Z</time>
      </trkpt>
      <trkpt lat="46.2002" lon="7.14665">
        <ele>1803.57</ele>
        <time>2016-06-10T15:37:26Z</time>
      </trkpt>
      <trkpt lat="46.20007" lon="7.14679">
        <ele>1803.09</ele>
        <time>2016-06-10T15:37:39Z</time>
      </trkpt>
      <trkpt lat="46.20002" lon="7.14686">
        <ele>1802.61</ele>
        <time>2016-06-10T15:37:45Z</time>
      </trkpt>
      <trkpt lat="46.19996" lon="7.14691">
        <ele>1802.61</ele>
        <time>2016-06-10T15:37:50Z</time>
      </trkpt>
      <trkpt lat="46.19997" lon="7.147">
        <ele>1802.13</ele>
        <time>2016-06-10T15:37:55Z</time>
      </trkpt>
      <trkpt lat="46.20006" lon="7.1471">
        <ele>1802.13</ele>
        <time>2016-06-10T15:38:00Z</time>
      </trkpt>
      <trkpt lat="46.20024" lon="7.14711">
        <ele>1801.17</ele>
        <time>2016-06-10T15:38:12Z</time>
      </trkpt>
      <trkpt lat="46.20022" lon="7.14717">
        <ele>1800.21</ele>
        <time>2016-06-10T15:38:17Z</time>
      </trkpt>
      <trkpt lat="46.20027" lon="7.14723">
        <ele>1800.69</ele>
        <time>2016-06-10T15:38:24Z</time>
      </trkpt>
      <trkpt lat="46.20055" lon="7.14726">
        <ele>1800.21</ele>
        <time>2016-06-10T15:38:37Z</time>
      </trkpt>
      <trkpt lat="46.20055" lon="7.14725">
        <ele>1791.07</ele>
        <time>2016-06-10T15:38:43Z</time>
      </trkpt>
      <trkpt lat="46.2003" lon="7.14727">
        <ele>1773.77</ele>
        <time>2016-06-10T15:38:53Z</time>
      </trkpt>
      <trkpt lat="46.20017" lon="7.14736">
        <ele>1772.81</ele>
        <time>2016-06-10T15:39:08Z</time>
      </trkpt>
      <trkpt lat="46.20009" lon="7.14743">
        <ele>1772.33</ele>
        <time>2016-06-10T15:39:16Z</time>
      </trkpt>
      <trkpt lat="46.20008" lon="7.14747">
        <ele>1772.33</ele>
        <time>2016-06-10T15:39:19Z</time>
      </trkpt>
      <trkpt lat="46.20006" lon="7.14752">
        <ele>1772.33</ele>
        <time>2016-06-10T15:39:23Z</time>
      </trkpt>
      <trkpt lat="46.19996" lon="7.14766">
        <ele>1771.85</ele>
        <time>2016-06-10T15:39:36Z</time>
      </trkpt>
      <trkpt lat="46.1999" lon="7.14778">
        <ele>1772.33</ele>
        <time>2016-06-10T15:39:45Z</time>
      </trkpt>
      <trkpt lat="46.19983" lon="7.14784">
        <ele>1772.33</ele>
        <time>2016-06-10T15:39:53Z</time>
      </trkpt>
      <trkpt lat="46.19978" lon="7.14786">
        <ele>1772.33</ele>
        <time>2016-06-10T15:40:05Z</time>
      </trkpt>
      <trkpt lat="46.19962" lon="7.1478">
        <ele>1772.33</ele>
        <time>2016-06-10T15:40:17Z</time>
      </trkpt>
      <trkpt lat="46.19944" lon="7.14784">
        <ele>1772.33</ele>
        <time>2016-06-10T15:40:30Z</time>
      </trkpt>
      <trkpt lat="46.19936" lon="7.14805">
        <ele>1772.33</ele>
        <time>2016-06-10T15:40:45Z</time>
      </trkpt>
      <trkpt lat="46.19935" lon="7.14813">
        <ele>1772.33</ele>
        <time>2016-06-10T15:40:49Z</time>
      </trkpt>
      <trkpt lat="46.19937" lon="7.14822">
        <ele>1772.81</ele>
        <time>2016-06-10T15:40:53Z</time>
      </trkpt>
      <trkpt lat="46.19943" lon="7.14856">
        <ele>1772.81</ele>
        <time>2016-06-10T15:41:07Z</time>
      </trkpt>
      <trkpt lat="46.19945" lon="7.14864">
        <ele>1772.81</ele>
        <time>2016-06-10T15:41:11Z</time>
      </trkpt>
      <trkpt lat="46.19948" lon="7.14872">
        <ele>1772.81</ele>
        <time>2016-06-10T15:41:15Z</time>
      </trkpt>
      <trkpt lat="46.19953" lon="7.14888">
        <ele>1772.81</ele>
        <time>2016-06-10T15:41:24Z</time>
      </trkpt>
      <trkpt lat="46.19954" lon="7.14898">
        <ele>1772.81</ele>
        <time>2016-06-10T15:41:29Z</time>
      </trkpt>
      <trkpt lat="46.19963" lon="7.14918">
        <ele>1772.81</ele>
        <time>2016-06-10T15:41:39Z</time>
      </trkpt>
      <trkpt lat="46.19964" lon="7.14927">
        <ele>1772.81</ele>
        <time>2016-06-10T15:41:43Z</time>
      </trkpt>
      <trkpt lat="46.19957" lon="7.14946">
        <ele>1772.81</ele>
        <time>2016-06-10T15:41:54Z</time>
      </trkpt>
      <trkpt lat="46.19953" lon="7.14957">
        <ele>1772.81</ele>
        <time>2016-06-10T15:42:03Z</time>
      </trkpt>
      <trkpt lat="46.19953" lon="7.14961">
        <ele>1772.81</ele>
        <time>2016-06-10T15:42:06Z</time>
      </trkpt>
      <trkpt lat="46.19958" lon="7.14979">
        <ele>1772.81</ele>
        <time>2016-06-10T15:42:16Z</time>
      </trkpt>
      <trkpt lat="46.19961" lon="7.14997">
        <ele>1772.81</ele>
        <time>2016-06-10T15:42:26Z</time>
      </trkpt>
      <trkpt lat="46.19965" lon="7.15017">
        <ele>1773.29</ele>
        <time>2016-06-10T15:42:38Z</time>
      </trkpt>
      <trkpt lat="46.19966" lon="7.15024">
        <ele>1773.29</ele>
        <time>2016-06-10T15:42:41Z</time>
      </trkpt>
      <trkpt lat="46.19964" lon="7.15032">
        <ele>1773.29</ele>
        <time>2016-06-10T15:42:46Z</time>
      </trkpt>
      <trkpt lat="46.19962" lon="7.15047">
        <ele>1773.29</ele>
        <time>2016-06-10T15:42:53Z</time>
      </trkpt>
      <trkpt lat="46.19958" lon="7.1506">
        <ele>1773.29</ele>
        <time>2016-06-10T15:43:00Z</time>
      </trkpt>
      <trkpt lat="46.19959" lon="7.15086">
        <ele>1773.29</ele>
        <time>2016-06-10T15:43:12Z</time>
      </trkpt>
      <trkpt lat="46.19965" lon="7.15107">
        <ele>1773.29</ele>
        <time>2016-06-10T15:43:20Z</time>
      </trkpt>
      <trkpt lat="46.19966" lon="7.15137">
        <ele>1765.12</ele>
        <time>2016-06-10T15:43:29Z</time>
      </trkpt>
      <trkpt lat="46.19952" lon="7.15148">
        <ele>1736.76</ele>
        <time>2016-06-10T15:43:40Z</time>
      </trkpt>
      <trkpt lat="46.19937" lon="7.15157">
        <ele>1719.94</ele>
        <time>2016-06-10T15:43:51Z</time>
      </trkpt>
      <trkpt lat="46.19936" lon="7.1518">
        <ele>1712.73</ele>
        <time>2016-06-10T15:44:01Z</time>
      </trkpt>
      <trkpt lat="46.19935" lon="7.15188">
        <ele>1710.32</ele>
        <time>2016-06-10T15:44:05Z</time>
      </trkpt>
      <trkpt lat="46.19935" lon="7.15205">
        <ele>1709.36</ele>
        <time>2016-06-10T15:44:14Z</time>
      </trkpt>
      <trkpt lat="46.19934" lon="7.15223">
        <ele>1707.92</ele>
        <time>2016-06-10T15:44:23Z</time>
      </trkpt>
      <trkpt lat="46.19935" lon="7.15239">
        <ele>1704.55</ele>
        <time>2016-06-10T15:44:31Z</time>
      </trkpt>
      <trkpt lat="46.19935" lon="7.15249">
        <ele>1702.15</ele>
        <time>2016-06-10T15:44:35Z</time>
      </trkpt>
      <trkpt lat="46.1994" lon="7.15277">
        <ele>1696.86</ele>
        <time>2016-06-10T15:44:47Z</time>
      </trkpt>
      <trkpt lat="46.19941" lon="7.15287">
        <ele>1694.46</ele>
        <time>2016-06-10T15:44:52Z</time>
      </trkpt>
      <trkpt lat="46.19942" lon="7.15306">
        <ele>1693.02</ele>
        <time>2016-06-10T15:45:02Z</time>
      </trkpt>
      <trkpt lat="46.19945" lon="7.15329">
        <ele>1690.14</ele>
        <time>2016-06-10T15:45:14Z</time>
      </trkpt>
      <trkpt lat="46.19944" lon="7.1535">
        <ele>1690.14</ele>
        <time>2016-06-10T15:45:25Z</time>
      </trkpt>
      <trkpt lat="46.19956" lon="7.15359">
        <ele>1682.44</ele>
        <time>2016-06-10T15:45:38Z</time>
      </trkpt>
      <trkpt lat="46.19962" lon="7.15347">
        <ele>1680.52</ele>
        <time>2016-06-10T15:45:48Z</time>
      </trkpt>
      <trkpt lat="46.19965" lon="7.15354">
        <ele>1679.56</ele>
        <time>2016-06-10T15:45:54Z</time>
      </trkpt>
      <trkpt lat="46.1996" lon="7.15363">
        <ele>1675.23</ele>
        <time>2016-06-10T15:46:06Z</time>
      </trkpt>
      <trkpt lat="46.19959" lon="7.15371">
        <ele>1674.75</ele>
        <time>2016-06-10T15:46:19Z</time>
      </trkpt>
      <trkpt lat="46.19957" lon="7.15375">
        <ele>1674.27</ele>
        <time>2016-06-10T15:46:37Z</time>
      </trkpt>
      <trkpt lat="46.19953" lon="7.15388">
        <ele>1672.83</ele>
        <time>2016-06-10T15:46:43Z</time>
      </trkpt>
      <trkpt lat="46.19957" lon="7.15404">
        <ele>1670.43</ele>
        <time>2016-06-10T15:46:57Z</time>
      </trkpt>
      <trkpt lat="46.19966" lon="7.15423">
        <ele>1665.62</ele>
        <time>2016-06-10T15:47:11Z</time>
      </trkpt>
      <trkpt lat="46.19973" lon="7.1544">
        <ele>1661.78</ele>
        <time>2016-06-10T15:47:24Z</time>
      </trkpt>
      <trkpt lat="46.19979" lon="7.15453">
        <ele>1657.93</ele>
        <time>2016-06-10T15:47:37Z</time>
      </trkpt>
      <trkpt lat="46.1998" lon="7.15455">
        <ele>1655.53</ele>
        <time>2016-06-10T15:47:40Z</time>
      </trkpt>
      <trkpt lat="46.19987" lon="7.15463">
        <ele>1649.76</ele>
        <time>2016-06-10T15:47:51Z</time>
      </trkpt>
      <trkpt lat="46.19987" lon="7.15469">
        <ele>1648.32</ele>
        <time>2016-06-10T15:47:55Z</time>
      </trkpt>
      <trkpt lat="46.19992" lon="7.15481">
        <ele>1645.43</ele>
        <time>2016-06-10T15:48:02Z</time>
      </trkpt>
      <trkpt lat="46.19999" lon="7.15498">
        <ele>1639.67</ele>
        <time>2016-06-10T15:48:15Z</time>
      </trkpt>
      <trkpt lat="46.19999" lon="7.15502">
        <ele>1637.26</ele>
        <time>2016-06-10T15:48:27Z</time>
      </trkpt>
      <trkpt lat="46.19998" lon="7.15513">
        <ele>1635.82</ele>
        <time>2016-06-10T15:48:44Z</time>
      </trkpt>
      <trkpt lat="46.2" lon="7.15518">
        <ele>1635.34</ele>
        <time>2016-06-10T15:48:50Z</time>
      </trkpt>
      <trkpt lat="46.2" lon="7.15526">
        <ele>1634.86</ele>
        <time>2016-06-10T15:48:55Z</time>
      </trkpt>
      <trkpt lat="46.19999" lon="7.15532">
        <ele>1634.38</ele>
        <time>2016-06-10T15:49:00Z</time>
      </trkpt>
      <trkpt lat="46.19996" lon="7.15541">
        <ele>1633.42</ele>
        <time>2016-06-10T15:49:06Z</time>
      </trkpt>
      <trkpt lat="46.19994" lon="7.15561">
        <ele>1630.53</ele>
        <time>2016-06-10T15:49:18Z</time>
      </trkpt>
      <trkpt lat="46.19989" lon="7.1557">
        <ele>1629.57</ele>
        <time>2016-06-10T15:49:25Z</time>
      </trkpt>
      <trkpt lat="46.19983" lon="7.15586">
        <ele>1625.73</ele>
        <time>2016-06-10T15:49:38Z</time>
      </trkpt>
      <trkpt lat="46.19976" lon="7.15612">
        <ele>1619.96</ele>
        <time>2016-06-10T15:49:53Z</time>
      </trkpt>
      <trkpt lat="46.19978" lon="7.15627">
        <ele>1616.59</ele>
        <time>2016-06-10T15:50:00Z</time>
      </trkpt>
      <trkpt lat="46.19981" lon="7.15639">
        <ele>1612.75</ele>
        <time>2016-06-10T15:50:09Z</time>
      </trkpt>
      <trkpt lat="46.19977" lon="7.15643">
        <ele>1610.83</ele>
        <time>2016-06-10T15:50:16Z</time>
      </trkpt>
      <trkpt lat="46.19975" lon="7.15649">
        <ele>1609.86</ele>
        <time>2016-06-10T15:50:19Z</time>
      </trkpt>
      <trkpt lat="46.19983" lon="7.15676">
        <ele>1608.42</ele>
        <time>2016-06-10T15:50:34Z</time>
      </trkpt>
      <trkpt lat="46.19977" lon="7.15709">
        <ele>1606.5</ele>
        <time>2016-06-10T15:50:53Z</time>
      </trkpt>
      <trkpt lat="46.19982" lon="7.15727">
        <ele>1604.1</ele>
        <time>2016-06-10T15:51:06Z</time>
      </trkpt>
      <trkpt lat="46.19983" lon="7.15728">
        <ele>1603.62</ele>
        <time>2016-06-10T15:51:34Z</time>
      </trkpt>
      <trkpt lat="46.19983" lon="7.15727">
        <ele>1604.1</ele>
        <time>2016-06-10T15:51:50Z</time>
      </trkpt>
      <trkpt lat="46.19984" lon="7.15727">
        <ele>1604.58</ele>
        <time>2016-06-10T15:52:21Z</time>
      </trkpt>
      <trkpt lat="46.19986" lon="7.15728">
        <ele>1604.1</ele>
        <time>2016-06-10T15:52:44Z</time>
      </trkpt>
      <trkpt lat="46.19987" lon="7.15728">
        <ele>1604.1</ele>
        <time>2016-06-10T15:53:20Z</time>
      </trkpt>
      <trkpt lat="46.19986" lon="7.15729">
        <ele>1604.58</ele>
        <time>2016-06-10T15:53:49Z</time>
      </trkpt>
      <trkpt lat="46.19986" lon="7.15728">
        <ele>1603.14</ele>
        <time>2016-06-10T15:54:14Z</time>
      </trkpt>
      <trkpt lat="46.19985" lon="7.15729">
        <ele>1602.66</ele>
        <time>2016-06-10T15:54:27Z</time>
      </trkpt>
      <trkpt lat="46.19985" lon="7.15727">
        <ele>1602.66</ele>
        <time>2016-06-10T15:54:46Z</time>
      </trkpt>
      <trkpt lat="46.19987" lon="7.1573">
        <ele>1603.14</ele>
        <time>2016-06-10T15:55:20Z</time>
      </trkpt>
      <trkpt lat="46.19987" lon="7.1573">
        <ele>1602.17</ele>
        <time>2016-06-10T15:55:45Z</time>
      </trkpt>
      <trkpt lat="46.19988" lon="7.15732">
        <ele>1600.73</ele>
        <time>2016-06-10T15:56:23Z</time>
      </trkpt>
      <trkpt lat="46.19988" lon="7.15729">
        <ele>1599.77</ele>
        <time>2016-06-10T15:56:41Z</time>
      </trkpt>
      <trkpt lat="46.19989" lon="7.15728">
        <ele>1600.25</ele>
        <time>2016-06-10T15:56:57Z</time>
      </trkpt>
      <trkpt lat="46.19988" lon="7.15729">
        <ele>1600.25</ele>
        <time>2016-06-10T15:57:14Z</time>
      </trkpt>
      <trkpt lat="46.19988" lon="7.15733">
        <ele>1601.69</ele>
        <time>2016-06-10T15:57:28Z</time>
      </trkpt>
      <trkpt lat="46.19989" lon="7.15735">
        <ele>1602.66</ele>
        <time>2016-06-10T15:57:39Z</time>
      </trkpt>
      <trkpt lat="46.19992" lon="7.15739">
        <ele>1604.1</ele>
        <time>2016-06-10T15:57:50Z</time>
      </trkpt>
      <trkpt lat="46.19992" lon="7.15742">
        <ele>1604.58</ele>
        <time>2016-06-10T15:58:02Z</time>
      </trkpt>
      <trkpt lat="46.19992" lon="7.15744">
        <ele>1604.1</ele>
        <time>2016-06-10T15:58:22Z</time>
      </trkpt>
      <trkpt lat="46.19992" lon="7.15744">
        <ele>1604.1</ele>
        <time>2016-06-10T15:58:42Z</time>
      </trkpt>
      <trkpt lat="46.19992" lon="7.15743">
        <ele>1604.58</ele>
        <time>2016-06-10T15:59:06Z</time>
      </trkpt>
      <trkpt lat="46.19992" lon="7.15744">
        <ele>1604.58</ele>
        <time>2016-06-10T15:59:28Z</time>
      </trkpt>
      <trkpt lat="46.19993" lon="7.15744">
        <ele>1604.1</ele>
        <time>2016-06-10T15:59:51Z</time>
      </trkpt>
      <trkpt lat="46.19995" lon="7.15745">
        <ele>1604.58</ele>
        <time>2016-06-10T16:00:05Z</time>
      </trkpt>
      <trkpt lat="46.19998" lon="7.15742">
        <ele>1604.58</ele>
        <time>2016-06-10T16:00:09Z</time>
      </trkpt>
      <trkpt lat="46.19997" lon="7.15747">
        <ele>1604.58</ele>
        <time>2016-06-10T16:00:18Z</time>
      </trkpt>
      <trkpt lat="46.19998" lon="7.1575">
        <ele>1605.06</ele>
        <time>2016-06-10T16:00:26Z</time>
      </trkpt>
      <trkpt lat="46.19998" lon="7.1575">
        <ele>1605.54</ele>
        <time>2016-06-10T16:00:29Z</time>
      </trkpt>
      <trkpt lat="46.19998" lon="7.15749">
        <ele>1606.02</ele>
        <time>2016-06-10T16:00:44Z</time>
      </trkpt>
      <trkpt lat="46.19996" lon="7.15749">
        <ele>1605.54</ele>
        <time>2016-06-10T16:01:07Z</time>
      </trkpt>
      <trkpt lat="46.19997" lon="7.15748">
        <ele>1605.06</ele>
        <time>2016-06-10T16:01:17Z</time>
      </trkpt>
    </trkseg>
  </trk>
</gpx>